<?xml version="1.0" encoding="UTF-8" standalone="no" ?>
<gpx xmlns="http://www.topografix.com/GPX/1/1" xmlns:xsi="http://www.w3.org/2001/XMLSchema-instance" xsi:schemaLocation="http://www.topografix.com/GPX/1/1 http://www.topografix.com/GPX/1/1/gpx.xsd" version="1.1" creator="VisuGPX - https://www.visugpx.com">
  <metadata>
    <name> Alboussiere  26km</name>
    <desc><![CDATA[fait le 09/05/2024 au départ du gite Au Cochon d'Avril. Le tour des chateaux]]></desc>
  </metadata>
  <wpt lat="44.95775" lon="4.71605">
    <ele>536.4</ele>
    <name><![CDATA[Au Cochon d'Avril ]]></name>
    <type><![CDATA[hotel]]></type>
  </wpt>
  <trk>
    <name><![CDATA[ Alboussiere  26km_1]]></name>
    <extensions>
      <line xmlns="http://www.topografix.com/GPX/gpx_style/0/2">
        <color>0000FF</color>
        <width>4</width>
        <dasharray>12</dasharray>
      </line>
    </extensions>
    <trkseg>
      <trkpt lat="44.95644" lon="4.71792">
        <ele>599.52</ele>
        <time>2024-05-09T07:45:47Z</time>
      </trkpt>
      <trkpt lat="44.95654" lon="4.71802">
        <ele>600.48</ele>
        <time>2024-05-09T07:45:55Z</time>
      </trkpt>
      <trkpt lat="44.95657" lon="4.71809">
        <ele>600.96</ele>
        <time>2024-05-09T07:45:59Z</time>
      </trkpt>
      <trkpt lat="44.95659" lon="4.7184">
        <ele>600.48</ele>
        <time>2024-05-09T07:46:15Z</time>
      </trkpt>
      <trkpt lat="44.95638" lon="4.71867">
        <ele>601.44</ele>
        <time>2024-05-09T07:46:33Z</time>
      </trkpt>
      <trkpt lat="44.95613" lon="4.71889">
        <ele>603.85</ele>
        <time>2024-05-09T07:46:54Z</time>
      </trkpt>
      <trkpt lat="44.95586" lon="4.71914">
        <ele>602.88</ele>
        <time>2024-05-09T07:47:16Z</time>
      </trkpt>
      <trkpt lat="44.95572" lon="4.71928">
        <ele>602.88</ele>
        <time>2024-05-09T07:47:30Z</time>
      </trkpt>
      <trkpt lat="44.95549" lon="4.71959">
        <ele>600.48</ele>
        <time>2024-05-09T07:47:50Z</time>
      </trkpt>
      <trkpt lat="44.95537" lon="4.71985">
        <ele>604.33</ele>
        <time>2024-05-09T07:48:05Z</time>
      </trkpt>
      <trkpt lat="44.95524" lon="4.7203">
        <ele>606.25</ele>
        <time>2024-05-09T07:48:26Z</time>
      </trkpt>
      <trkpt lat="44.95506" lon="4.72051">
        <ele>605.29</ele>
        <time>2024-05-09T07:48:43Z</time>
      </trkpt>
      <trkpt lat="44.95479" lon="4.72065">
        <ele>604.33</ele>
        <time>2024-05-09T07:49:01Z</time>
      </trkpt>
      <trkpt lat="44.95449" lon="4.72081">
        <ele>602.88</ele>
        <time>2024-05-09T07:49:21Z</time>
      </trkpt>
      <trkpt lat="44.95429" lon="4.72104">
        <ele>602.4</ele>
        <time>2024-05-09T07:49:37Z</time>
      </trkpt>
      <trkpt lat="44.95401" lon="4.72135">
        <ele>602.88</ele>
        <time>2024-05-09T07:49:59Z</time>
      </trkpt>
      <trkpt lat="44.95374" lon="4.72162">
        <ele>600.96</ele>
        <time>2024-05-09T07:50:20Z</time>
      </trkpt>
      <trkpt lat="44.95358" lon="4.72195">
        <ele>599.52</ele>
        <time>2024-05-09T07:50:38Z</time>
      </trkpt>
      <trkpt lat="44.95346" lon="4.72225">
        <ele>598.56</ele>
        <time>2024-05-09T07:50:55Z</time>
      </trkpt>
      <trkpt lat="44.95328" lon="4.72253">
        <ele>596.15</ele>
        <time>2024-05-09T07:51:10Z</time>
      </trkpt>
      <trkpt lat="44.95307" lon="4.72297">
        <ele>596.15</ele>
        <time>2024-05-09T07:51:30Z</time>
      </trkpt>
      <trkpt lat="44.95301" lon="4.72321">
        <ele>595.19</ele>
        <time>2024-05-09T07:51:42Z</time>
      </trkpt>
      <trkpt lat="44.9529" lon="4.72351">
        <ele>594.71</ele>
        <time>2024-05-09T07:51:59Z</time>
      </trkpt>
      <trkpt lat="44.95285" lon="4.72355">
        <ele>592.79</ele>
        <time>2024-05-09T07:52:04Z</time>
      </trkpt>
      <trkpt lat="44.95284" lon="4.72357">
        <ele>592.79</ele>
        <time>2024-05-09T07:52:05Z</time>
      </trkpt>
      <trkpt lat="44.95283" lon="4.72359">
        <ele>592.31</ele>
        <time>2024-05-09T07:52:06Z</time>
      </trkpt>
      <trkpt lat="44.95282" lon="4.72361">
        <ele>592.31</ele>
        <time>2024-05-09T07:52:07Z</time>
      </trkpt>
      <trkpt lat="44.95281" lon="4.72363">
        <ele>591.83</ele>
        <time>2024-05-09T07:52:08Z</time>
      </trkpt>
      <trkpt lat="44.95251" lon="4.7239">
        <ele>593.75</ele>
        <time>2024-05-09T07:52:27Z</time>
      </trkpt>
      <trkpt lat="44.95226" lon="4.72418">
        <ele>593.27</ele>
        <time>2024-05-09T07:52:46Z</time>
      </trkpt>
      <trkpt lat="44.952" lon="4.72463">
        <ele>592.31</ele>
        <time>2024-05-09T07:53:11Z</time>
      </trkpt>
      <trkpt lat="44.95173" lon="4.7249">
        <ele>590.39</ele>
        <time>2024-05-09T07:53:33Z</time>
      </trkpt>
      <trkpt lat="44.95138" lon="4.72509">
        <ele>590.87</ele>
        <time>2024-05-09T07:53:56Z</time>
      </trkpt>
      <trkpt lat="44.95112" lon="4.72522">
        <ele>590.39</ele>
        <time>2024-05-09T07:54:16Z</time>
      </trkpt>
      <trkpt lat="44.95087" lon="4.72536">
        <ele>586.54</ele>
        <time>2024-05-09T07:54:34Z</time>
      </trkpt>
      <trkpt lat="44.95054" lon="4.72547">
        <ele>584.14</ele>
        <time>2024-05-09T07:54:54Z</time>
      </trkpt>
      <trkpt lat="44.95033" lon="4.7256">
        <ele>582.22</ele>
        <time>2024-05-09T07:55:10Z</time>
      </trkpt>
      <trkpt lat="44.95022" lon="4.72587">
        <ele>579.33</ele>
        <time>2024-05-09T07:55:27Z</time>
      </trkpt>
      <trkpt lat="44.95004" lon="4.72618">
        <ele>577.89</ele>
        <time>2024-05-09T07:55:45Z</time>
      </trkpt>
      <trkpt lat="44.94981" lon="4.7264">
        <ele>575.01</ele>
        <time>2024-05-09T07:56:03Z</time>
      </trkpt>
      <trkpt lat="44.94953" lon="4.72662">
        <ele>571.16</ele>
        <time>2024-05-09T07:56:23Z</time>
      </trkpt>
      <trkpt lat="44.94928" lon="4.72681">
        <ele>568.28</ele>
        <time>2024-05-09T07:56:41Z</time>
      </trkpt>
      <trkpt lat="44.94907" lon="4.72704">
        <ele>563.95</ele>
        <time>2024-05-09T07:56:59Z</time>
      </trkpt>
      <trkpt lat="44.94888" lon="4.7273">
        <ele>560.59</ele>
        <time>2024-05-09T07:57:19Z</time>
      </trkpt>
      <trkpt lat="44.9487" lon="4.72745">
        <ele>558.66</ele>
        <time>2024-05-09T07:57:40Z</time>
      </trkpt>
      <trkpt lat="44.94852" lon="4.7276">
        <ele>558.18</ele>
        <time>2024-05-09T07:57:57Z</time>
      </trkpt>
      <trkpt lat="44.94829" lon="4.72776">
        <ele>558.18</ele>
        <time>2024-05-09T07:58:15Z</time>
      </trkpt>
      <trkpt lat="44.94797" lon="4.72796">
        <ele>558.18</ele>
        <time>2024-05-09T07:58:35Z</time>
      </trkpt>
      <trkpt lat="44.94769" lon="4.72813">
        <ele>558.66</ele>
        <time>2024-05-09T07:58:54Z</time>
      </trkpt>
      <trkpt lat="44.94767" lon="4.72814">
        <ele>558.66</ele>
        <time>2024-05-09T07:58:55Z</time>
      </trkpt>
      <trkpt lat="44.94765" lon="4.72816">
        <ele>558.66</ele>
        <time>2024-05-09T07:58:56Z</time>
      </trkpt>
      <trkpt lat="44.94764" lon="4.72817">
        <ele>558.66</ele>
        <time>2024-05-09T07:58:57Z</time>
      </trkpt>
      <trkpt lat="44.94751" lon="4.72821">
        <ele>559.62</ele>
        <time>2024-05-09T07:59:12Z</time>
      </trkpt>
      <trkpt lat="44.94722" lon="4.72823">
        <ele>560.59</ele>
        <time>2024-05-09T07:59:31Z</time>
      </trkpt>
      <trkpt lat="44.94695" lon="4.72822">
        <ele>560.59</ele>
        <time>2024-05-09T07:59:49Z</time>
      </trkpt>
      <trkpt lat="44.94665" lon="4.7282">
        <ele>562.51</ele>
        <time>2024-05-09T08:00:06Z</time>
      </trkpt>
      <trkpt lat="44.94636" lon="4.72819">
        <ele>564.91</ele>
        <time>2024-05-09T08:00:23Z</time>
      </trkpt>
      <trkpt lat="44.94609" lon="4.72824">
        <ele>565.39</ele>
        <time>2024-05-09T08:00:42Z</time>
      </trkpt>
      <trkpt lat="44.9458" lon="4.72835">
        <ele>565.39</ele>
        <time>2024-05-09T08:01:03Z</time>
      </trkpt>
      <trkpt lat="44.94556" lon="4.72853">
        <ele>564.91</ele>
        <time>2024-05-09T08:01:21Z</time>
      </trkpt>
      <trkpt lat="44.94533" lon="4.72903">
        <ele>560.59</ele>
        <time>2024-05-09T08:01:46Z</time>
      </trkpt>
      <trkpt lat="44.94528" lon="4.72909">
        <ele>560.11</ele>
        <time>2024-05-09T08:01:51Z</time>
      </trkpt>
      <trkpt lat="44.94525" lon="4.7291">
        <ele>559.62</ele>
        <time>2024-05-09T08:01:53Z</time>
      </trkpt>
      <trkpt lat="44.94492" lon="4.72908">
        <ele>557.7</ele>
        <time>2024-05-09T08:02:14Z</time>
      </trkpt>
      <trkpt lat="44.94473" lon="4.72905">
        <ele>554.34</ele>
        <time>2024-05-09T08:02:26Z</time>
      </trkpt>
      <trkpt lat="44.9447" lon="4.72909">
        <ele>553.38</ele>
        <time>2024-05-09T08:02:29Z</time>
      </trkpt>
      <trkpt lat="44.9447" lon="4.72911">
        <ele>553.38</ele>
        <time>2024-05-09T08:02:30Z</time>
      </trkpt>
      <trkpt lat="44.94469" lon="4.72914">
        <ele>552.9</ele>
        <time>2024-05-09T08:02:31Z</time>
      </trkpt>
      <trkpt lat="44.94468" lon="4.72916">
        <ele>552.41</ele>
        <time>2024-05-09T08:02:32Z</time>
      </trkpt>
      <trkpt lat="44.94466" lon="4.72924">
        <ele>552.41</ele>
        <time>2024-05-09T08:02:36Z</time>
      </trkpt>
      <trkpt lat="44.9446" lon="4.72929">
        <ele>551.93</ele>
        <time>2024-05-09T08:02:47Z</time>
      </trkpt>
      <trkpt lat="44.94459" lon="4.72929">
        <ele>551.93</ele>
        <time>2024-05-09T08:02:48Z</time>
      </trkpt>
      <trkpt lat="44.94458" lon="4.72929">
        <ele>551.93</ele>
        <time>2024-05-09T08:02:49Z</time>
      </trkpt>
      <trkpt lat="44.94457" lon="4.72929">
        <ele>552.41</ele>
        <time>2024-05-09T08:02:50Z</time>
      </trkpt>
      <trkpt lat="44.94456" lon="4.72929">
        <ele>552.41</ele>
        <time>2024-05-09T08:02:51Z</time>
      </trkpt>
      <trkpt lat="44.94455" lon="4.72928">
        <ele>552.41</ele>
        <time>2024-05-09T08:02:52Z</time>
      </trkpt>
      <trkpt lat="44.94454" lon="4.72928">
        <ele>552.41</ele>
        <time>2024-05-09T08:02:53Z</time>
      </trkpt>
      <trkpt lat="44.94453" lon="4.72926">
        <ele>552.41</ele>
        <time>2024-05-09T08:02:54Z</time>
      </trkpt>
      <trkpt lat="44.94452" lon="4.72925">
        <ele>552.41</ele>
        <time>2024-05-09T08:02:55Z</time>
      </trkpt>
      <trkpt lat="44.94439" lon="4.72897">
        <ele>551.45</ele>
        <time>2024-05-09T08:03:13Z</time>
      </trkpt>
      <trkpt lat="44.94423" lon="4.72887">
        <ele>551.45</ele>
        <time>2024-05-09T08:03:25Z</time>
      </trkpt>
      <trkpt lat="44.94405" lon="4.72863">
        <ele>554.34</ele>
        <time>2024-05-09T08:03:44Z</time>
      </trkpt>
      <trkpt lat="44.94389" lon="4.72838">
        <ele>554.34</ele>
        <time>2024-05-09T08:04:01Z</time>
      </trkpt>
      <trkpt lat="44.94387" lon="4.72833">
        <ele>554.34</ele>
        <time>2024-05-09T08:04:04Z</time>
      </trkpt>
      <trkpt lat="44.94387" lon="4.72831">
        <ele>554.82</ele>
        <time>2024-05-09T08:04:05Z</time>
      </trkpt>
      <trkpt lat="44.94386" lon="4.7283">
        <ele>554.82</ele>
        <time>2024-05-09T08:04:06Z</time>
      </trkpt>
      <trkpt lat="44.94385" lon="4.72829">
        <ele>554.82</ele>
        <time>2024-05-09T08:04:07Z</time>
      </trkpt>
      <trkpt lat="44.94384" lon="4.72826">
        <ele>554.34</ele>
        <time>2024-05-09T08:04:08Z</time>
      </trkpt>
      <trkpt lat="44.94384" lon="4.72824">
        <ele>554.34</ele>
        <time>2024-05-09T08:04:09Z</time>
      </trkpt>
      <trkpt lat="44.94383" lon="4.72822">
        <ele>554.34</ele>
        <time>2024-05-09T08:04:10Z</time>
      </trkpt>
      <trkpt lat="44.94382" lon="4.72821">
        <ele>554.34</ele>
        <time>2024-05-09T08:04:11Z</time>
      </trkpt>
      <trkpt lat="44.94382" lon="4.72819">
        <ele>554.34</ele>
        <time>2024-05-09T08:04:12Z</time>
      </trkpt>
      <trkpt lat="44.94369" lon="4.72788">
        <ele>554.34</ele>
        <time>2024-05-09T08:04:30Z</time>
      </trkpt>
      <trkpt lat="44.94354" lon="4.72756">
        <ele>552.9</ele>
        <time>2024-05-09T08:04:48Z</time>
      </trkpt>
      <trkpt lat="44.94352" lon="4.72715">
        <ele>555.3</ele>
        <time>2024-05-09T08:05:08Z</time>
      </trkpt>
      <trkpt lat="44.94353" lon="4.72681">
        <ele>555.78</ele>
        <time>2024-05-09T08:05:22Z</time>
      </trkpt>
      <trkpt lat="44.94357" lon="4.72655">
        <ele>553.38</ele>
        <time>2024-05-09T08:05:38Z</time>
      </trkpt>
      <trkpt lat="44.94362" lon="4.72617">
        <ele>553.86</ele>
        <time>2024-05-09T08:05:57Z</time>
      </trkpt>
      <trkpt lat="44.94369" lon="4.72575">
        <ele>552.9</ele>
        <time>2024-05-09T08:06:18Z</time>
      </trkpt>
      <trkpt lat="44.9437" lon="4.72534">
        <ele>553.86</ele>
        <time>2024-05-09T08:06:36Z</time>
      </trkpt>
      <trkpt lat="44.94357" lon="4.72505">
        <ele>554.34</ele>
        <time>2024-05-09T08:06:52Z</time>
      </trkpt>
      <trkpt lat="44.94331" lon="4.7249">
        <ele>554.82</ele>
        <time>2024-05-09T08:07:11Z</time>
      </trkpt>
      <trkpt lat="44.94305" lon="4.72484">
        <ele>553.86</ele>
        <time>2024-05-09T08:07:30Z</time>
      </trkpt>
      <trkpt lat="44.94279" lon="4.72501">
        <ele>554.82</ele>
        <time>2024-05-09T08:07:49Z</time>
      </trkpt>
      <trkpt lat="44.9427" lon="4.72506">
        <ele>554.82</ele>
        <time>2024-05-09T08:07:56Z</time>
      </trkpt>
      <trkpt lat="44.94269" lon="4.72506">
        <ele>554.82</ele>
        <time>2024-05-09T08:07:57Z</time>
      </trkpt>
      <trkpt lat="44.94267" lon="4.72505">
        <ele>554.82</ele>
        <time>2024-05-09T08:07:58Z</time>
      </trkpt>
      <trkpt lat="44.94242" lon="4.72491">
        <ele>560.59</ele>
        <time>2024-05-09T08:08:16Z</time>
      </trkpt>
      <trkpt lat="44.94208" lon="4.72496">
        <ele>564.91</ele>
        <time>2024-05-09T08:08:38Z</time>
      </trkpt>
      <trkpt lat="44.94186" lon="4.72502">
        <ele>563.95</ele>
        <time>2024-05-09T08:08:54Z</time>
      </trkpt>
      <trkpt lat="44.94153" lon="4.72507">
        <ele>565.39</ele>
        <time>2024-05-09T08:09:17Z</time>
      </trkpt>
      <trkpt lat="44.94121" lon="4.7251">
        <ele>565.39</ele>
        <time>2024-05-09T08:09:38Z</time>
      </trkpt>
      <trkpt lat="44.9409" lon="4.72507">
        <ele>566.35</ele>
        <time>2024-05-09T08:09:59Z</time>
      </trkpt>
      <trkpt lat="44.94087" lon="4.725">
        <ele>565.87</ele>
        <time>2024-05-09T08:10:04Z</time>
      </trkpt>
      <trkpt lat="44.9409" lon="4.7245">
        <ele>565.87</ele>
        <time>2024-05-09T08:10:27Z</time>
      </trkpt>
      <trkpt lat="44.94095" lon="4.72405">
        <ele>567.32</ele>
        <time>2024-05-09T08:10:48Z</time>
      </trkpt>
      <trkpt lat="44.94103" lon="4.72364">
        <ele>566.35</ele>
        <time>2024-05-09T08:11:08Z</time>
      </trkpt>
      <trkpt lat="44.94113" lon="4.72321">
        <ele>567.32</ele>
        <time>2024-05-09T08:11:30Z</time>
      </trkpt>
      <trkpt lat="44.94124" lon="4.72282">
        <ele>567.8</ele>
        <time>2024-05-09T08:11:50Z</time>
      </trkpt>
      <trkpt lat="44.94136" lon="4.72237">
        <ele>569.24</ele>
        <time>2024-05-09T08:12:12Z</time>
      </trkpt>
      <trkpt lat="44.94147" lon="4.72199">
        <ele>570.2</ele>
        <time>2024-05-09T08:12:31Z</time>
      </trkpt>
      <trkpt lat="44.94153" lon="4.7216">
        <ele>571.16</ele>
        <time>2024-05-09T08:12:47Z</time>
      </trkpt>
      <trkpt lat="44.94156" lon="4.72126">
        <ele>572.6</ele>
        <time>2024-05-09T08:13:02Z</time>
      </trkpt>
      <trkpt lat="44.94159" lon="4.72097">
        <ele>575.49</ele>
        <time>2024-05-09T08:13:17Z</time>
      </trkpt>
      <trkpt lat="44.94162" lon="4.72066">
        <ele>576.93</ele>
        <time>2024-05-09T08:13:32Z</time>
      </trkpt>
      <trkpt lat="44.94162" lon="4.72062">
        <ele>577.41</ele>
        <time>2024-05-09T08:13:34Z</time>
      </trkpt>
      <trkpt lat="44.94162" lon="4.7206">
        <ele>577.41</ele>
        <time>2024-05-09T08:13:35Z</time>
      </trkpt>
      <trkpt lat="44.94162" lon="4.72058">
        <ele>577.89</ele>
        <time>2024-05-09T08:13:36Z</time>
      </trkpt>
      <trkpt lat="44.94169" lon="4.72031">
        <ele>580.29</ele>
        <time>2024-05-09T08:13:54Z</time>
      </trkpt>
      <trkpt lat="44.94181" lon="4.72017">
        <ele>580.77</ele>
        <time>2024-05-09T08:14:07Z</time>
      </trkpt>
      <trkpt lat="44.94202" lon="4.71996">
        <ele>584.62</ele>
        <time>2024-05-09T08:14:19Z</time>
      </trkpt>
      <trkpt lat="44.94224" lon="4.71962">
        <ele>590.87</ele>
        <time>2024-05-09T08:14:41Z</time>
      </trkpt>
      <trkpt lat="44.94233" lon="4.71934">
        <ele>596.15</ele>
        <time>2024-05-09T08:14:58Z</time>
      </trkpt>
      <trkpt lat="44.94236" lon="4.71917">
        <ele>596.64</ele>
        <time>2024-05-09T08:15:06Z</time>
      </trkpt>
      <trkpt lat="44.94236" lon="4.71915">
        <ele>596.64</ele>
        <time>2024-05-09T08:15:07Z</time>
      </trkpt>
      <trkpt lat="44.94237" lon="4.71913">
        <ele>596.64</ele>
        <time>2024-05-09T08:15:08Z</time>
      </trkpt>
      <trkpt lat="44.94241" lon="4.71882">
        <ele>595.67</ele>
        <time>2024-05-09T08:15:22Z</time>
      </trkpt>
      <trkpt lat="44.94251" lon="4.71844">
        <ele>591.35</ele>
        <time>2024-05-09T08:15:40Z</time>
      </trkpt>
      <trkpt lat="44.94255" lon="4.71832">
        <ele>588.95</ele>
        <time>2024-05-09T08:15:47Z</time>
      </trkpt>
      <trkpt lat="44.94261" lon="4.71792">
        <ele>590.87</ele>
        <time>2024-05-09T08:16:07Z</time>
      </trkpt>
      <trkpt lat="44.94257" lon="4.71752">
        <ele>592.79</ele>
        <time>2024-05-09T08:16:26Z</time>
      </trkpt>
      <trkpt lat="44.94255" lon="4.71714">
        <ele>594.23</ele>
        <time>2024-05-09T08:16:44Z</time>
      </trkpt>
      <trkpt lat="44.94259" lon="4.71696">
        <ele>592.79</ele>
        <time>2024-05-09T08:16:55Z</time>
      </trkpt>
      <trkpt lat="44.9427" lon="4.71663">
        <ele>593.75</ele>
        <time>2024-05-09T08:17:12Z</time>
      </trkpt>
      <trkpt lat="44.9427" lon="4.71661">
        <ele>593.75</ele>
        <time>2024-05-09T08:17:13Z</time>
      </trkpt>
      <trkpt lat="44.9427" lon="4.71659">
        <ele>593.75</ele>
        <time>2024-05-09T08:17:14Z</time>
      </trkpt>
      <trkpt lat="44.94269" lon="4.71657">
        <ele>593.75</ele>
        <time>2024-05-09T08:17:15Z</time>
      </trkpt>
      <trkpt lat="44.94268" lon="4.71655">
        <ele>593.75</ele>
        <time>2024-05-09T08:17:17Z</time>
      </trkpt>
      <trkpt lat="44.94266" lon="4.71653">
        <ele>593.75</ele>
        <time>2024-05-09T08:17:18Z</time>
      </trkpt>
      <trkpt lat="44.94265" lon="4.71652">
        <ele>594.23</ele>
        <time>2024-05-09T08:17:19Z</time>
      </trkpt>
      <trkpt lat="44.94241" lon="4.71644">
        <ele>595.67</ele>
        <time>2024-05-09T08:17:36Z</time>
      </trkpt>
      <trkpt lat="44.94225" lon="4.71637">
        <ele>595.67</ele>
        <time>2024-05-09T08:17:49Z</time>
      </trkpt>
      <trkpt lat="44.94224" lon="4.71636">
        <ele>595.19</ele>
        <time>2024-05-09T08:17:50Z</time>
      </trkpt>
      <trkpt lat="44.94223" lon="4.71635">
        <ele>595.19</ele>
        <time>2024-05-09T08:17:51Z</time>
      </trkpt>
      <trkpt lat="44.94202" lon="4.71618">
        <ele>594.23</ele>
        <time>2024-05-09T08:18:09Z</time>
      </trkpt>
      <trkpt lat="44.94185" lon="4.716">
        <ele>592.79</ele>
        <time>2024-05-09T08:18:25Z</time>
      </trkpt>
      <trkpt lat="44.94165" lon="4.71579">
        <ele>591.83</ele>
        <time>2024-05-09T08:18:41Z</time>
      </trkpt>
      <trkpt lat="44.94146" lon="4.71557">
        <ele>589.91</ele>
        <time>2024-05-09T08:18:58Z</time>
      </trkpt>
      <trkpt lat="44.94128" lon="4.71538">
        <ele>587.02</ele>
        <time>2024-05-09T08:19:14Z</time>
      </trkpt>
      <trkpt lat="44.94108" lon="4.71513">
        <ele>583.66</ele>
        <time>2024-05-09T08:19:33Z</time>
      </trkpt>
      <trkpt lat="44.9408" lon="4.71483">
        <ele>586.54</ele>
        <time>2024-05-09T08:19:54Z</time>
      </trkpt>
      <trkpt lat="44.94077" lon="4.71487">
        <ele>588.95</ele>
        <time>2024-05-09T08:20:06Z</time>
      </trkpt>
      <trkpt lat="44.94077" lon="4.71486">
        <ele>589.43</ele>
        <time>2024-05-09T08:20:23Z</time>
      </trkpt>
      <trkpt lat="44.94078" lon="4.71487">
        <ele>589.43</ele>
        <time>2024-05-09T08:20:24Z</time>
      </trkpt>
      <trkpt lat="44.94076" lon="4.71492">
        <ele>590.39</ele>
        <time>2024-05-09T08:20:33Z</time>
      </trkpt>
      <trkpt lat="44.94075" lon="4.71492">
        <ele>590.39</ele>
        <time>2024-05-09T08:20:34Z</time>
      </trkpt>
      <trkpt lat="44.94053" lon="4.71489">
        <ele>587.02</ele>
        <time>2024-05-09T08:20:54Z</time>
      </trkpt>
      <trkpt lat="44.94026" lon="4.7149">
        <ele>583.18</ele>
        <time>2024-05-09T08:21:12Z</time>
      </trkpt>
      <trkpt lat="44.93996" lon="4.7148">
        <ele>584.14</ele>
        <time>2024-05-09T08:21:33Z</time>
      </trkpt>
      <trkpt lat="44.93971" lon="4.71467">
        <ele>583.18</ele>
        <time>2024-05-09T08:21:52Z</time>
      </trkpt>
      <trkpt lat="44.93952" lon="4.71452">
        <ele>581.73</ele>
        <time>2024-05-09T08:22:09Z</time>
      </trkpt>
      <trkpt lat="44.93932" lon="4.71438">
        <ele>580.29</ele>
        <time>2024-05-09T08:22:27Z</time>
      </trkpt>
      <trkpt lat="44.93916" lon="4.71427">
        <ele>578.85</ele>
        <time>2024-05-09T08:22:41Z</time>
      </trkpt>
      <trkpt lat="44.93896" lon="4.71412">
        <ele>576.45</ele>
        <time>2024-05-09T08:22:57Z</time>
      </trkpt>
      <trkpt lat="44.93879" lon="4.71398">
        <ele>574.53</ele>
        <time>2024-05-09T08:23:13Z</time>
      </trkpt>
      <trkpt lat="44.93865" lon="4.7138">
        <ele>572.6</ele>
        <time>2024-05-09T08:23:28Z</time>
      </trkpt>
      <trkpt lat="44.93857" lon="4.71356">
        <ele>571.64</ele>
        <time>2024-05-09T08:23:42Z</time>
      </trkpt>
      <trkpt lat="44.93857" lon="4.71351">
        <ele>571.64</ele>
        <time>2024-05-09T08:23:44Z</time>
      </trkpt>
      <trkpt lat="44.93857" lon="4.71349">
        <ele>571.16</ele>
        <time>2024-05-09T08:23:45Z</time>
      </trkpt>
      <trkpt lat="44.93845" lon="4.71321">
        <ele>568.28</ele>
        <time>2024-05-09T08:24:02Z</time>
      </trkpt>
      <trkpt lat="44.9383" lon="4.71301">
        <ele>568.28</ele>
        <time>2024-05-09T08:24:17Z</time>
      </trkpt>
      <trkpt lat="44.93812" lon="4.71285">
        <ele>569.24</ele>
        <time>2024-05-09T08:24:32Z</time>
      </trkpt>
      <trkpt lat="44.93798" lon="4.7128">
        <ele>568.76</ele>
        <time>2024-05-09T08:24:43Z</time>
      </trkpt>
      <trkpt lat="44.93796" lon="4.71278">
        <ele>569.24</ele>
        <time>2024-05-09T08:24:44Z</time>
      </trkpt>
      <trkpt lat="44.93795" lon="4.71277">
        <ele>569.24</ele>
        <time>2024-05-09T08:24:45Z</time>
      </trkpt>
      <trkpt lat="44.93793" lon="4.71276">
        <ele>569.72</ele>
        <time>2024-05-09T08:24:46Z</time>
      </trkpt>
      <trkpt lat="44.93792" lon="4.71274">
        <ele>570.2</ele>
        <time>2024-05-09T08:24:47Z</time>
      </trkpt>
      <trkpt lat="44.93791" lon="4.71273">
        <ele>570.68</ele>
        <time>2024-05-09T08:24:48Z</time>
      </trkpt>
      <trkpt lat="44.93789" lon="4.71265">
        <ele>571.64</ele>
        <time>2024-05-09T08:24:52Z</time>
      </trkpt>
      <trkpt lat="44.93789" lon="4.71263">
        <ele>572.12</ele>
        <time>2024-05-09T08:24:53Z</time>
      </trkpt>
      <trkpt lat="44.93788" lon="4.71261">
        <ele>572.6</ele>
        <time>2024-05-09T08:24:54Z</time>
      </trkpt>
      <trkpt lat="44.93793" lon="4.71231">
        <ele>576.45</ele>
        <time>2024-05-09T08:25:08Z</time>
      </trkpt>
      <trkpt lat="44.93778" lon="4.71204">
        <ele>581.73</ele>
        <time>2024-05-09T08:25:23Z</time>
      </trkpt>
      <trkpt lat="44.93764" lon="4.71172">
        <ele>586.06</ele>
        <time>2024-05-09T08:25:40Z</time>
      </trkpt>
      <trkpt lat="44.93749" lon="4.71136">
        <ele>588.95</ele>
        <time>2024-05-09T08:25:58Z</time>
      </trkpt>
      <trkpt lat="44.93741" lon="4.71124">
        <ele>588.46</ele>
        <time>2024-05-09T08:26:05Z</time>
      </trkpt>
      <trkpt lat="44.9374" lon="4.71122">
        <ele>588.95</ele>
        <time>2024-05-09T08:26:06Z</time>
      </trkpt>
      <trkpt lat="44.93739" lon="4.71121">
        <ele>588.95</ele>
        <time>2024-05-09T08:26:07Z</time>
      </trkpt>
      <trkpt lat="44.93737" lon="4.71119">
        <ele>588.95</ele>
        <time>2024-05-09T08:26:08Z</time>
      </trkpt>
      <trkpt lat="44.93736" lon="4.71118">
        <ele>589.43</ele>
        <time>2024-05-09T08:26:09Z</time>
      </trkpt>
      <trkpt lat="44.93725" lon="4.71102">
        <ele>590.87</ele>
        <time>2024-05-09T08:26:23Z</time>
      </trkpt>
      <trkpt lat="44.93718" lon="4.711">
        <ele>591.35</ele>
        <time>2024-05-09T08:26:38Z</time>
      </trkpt>
      <trkpt lat="44.93719" lon="4.71102">
        <ele>589.91</ele>
        <time>2024-05-09T08:26:56Z</time>
      </trkpt>
      <trkpt lat="44.93652" lon="4.7056">
        <ele>610.57</ele>
        <time>2024-05-09T08:32:51Z</time>
      </trkpt>
      <trkpt lat="44.93638" lon="4.70532">
        <ele>612.98</ele>
        <time>2024-05-09T08:33:07Z</time>
      </trkpt>
      <trkpt lat="44.93623" lon="4.70503">
        <ele>613.46</ele>
        <time>2024-05-09T08:33:24Z</time>
      </trkpt>
      <trkpt lat="44.93614" lon="4.70486">
        <ele>612.98</ele>
        <time>2024-05-09T08:33:37Z</time>
      </trkpt>
      <trkpt lat="44.93643" lon="4.70485">
        <ele>613.94</ele>
        <time>2024-05-09T08:33:57Z</time>
      </trkpt>
      <trkpt lat="44.9368" lon="4.70503">
        <ele>616.34</ele>
        <time>2024-05-09T08:34:22Z</time>
      </trkpt>
      <trkpt lat="44.9371" lon="4.70522">
        <ele>619.23</ele>
        <time>2024-05-09T08:34:44Z</time>
      </trkpt>
      <trkpt lat="44.93733" lon="4.70535">
        <ele>618.26</ele>
        <time>2024-05-09T08:35:01Z</time>
      </trkpt>
      <trkpt lat="44.93767" lon="4.70554">
        <ele>617.78</ele>
        <time>2024-05-09T08:35:25Z</time>
      </trkpt>
      <trkpt lat="44.93795" lon="4.70572">
        <ele>618.26</ele>
        <time>2024-05-09T08:35:46Z</time>
      </trkpt>
      <trkpt lat="44.93838" lon="4.7058">
        <ele>618.26</ele>
        <time>2024-05-09T08:36:09Z</time>
      </trkpt>
      <trkpt lat="44.93867" lon="4.70558">
        <ele>621.15</ele>
        <time>2024-05-09T08:36:29Z</time>
      </trkpt>
      <trkpt lat="44.93885" lon="4.70526">
        <ele>623.07</ele>
        <time>2024-05-09T08:36:49Z</time>
      </trkpt>
      <trkpt lat="44.93907" lon="4.70506">
        <ele>622.11</ele>
        <time>2024-05-09T08:37:07Z</time>
      </trkpt>
      <trkpt lat="44.93928" lon="4.70491">
        <ele>620.19</ele>
        <time>2024-05-09T08:37:23Z</time>
      </trkpt>
      <trkpt lat="44.93941" lon="4.70471">
        <ele>619.71</ele>
        <time>2024-05-09T08:37:36Z</time>
      </trkpt>
      <trkpt lat="44.93955" lon="4.70448">
        <ele>619.23</ele>
        <time>2024-05-09T08:37:53Z</time>
      </trkpt>
      <trkpt lat="44.93965" lon="4.70411">
        <ele>618.26</ele>
        <time>2024-05-09T08:38:11Z</time>
      </trkpt>
      <trkpt lat="44.93979" lon="4.70376">
        <ele>616.34</ele>
        <time>2024-05-09T08:38:28Z</time>
      </trkpt>
      <trkpt lat="44.94004" lon="4.70354">
        <ele>616.82</ele>
        <time>2024-05-09T08:38:48Z</time>
      </trkpt>
      <trkpt lat="44.94032" lon="4.70355">
        <ele>616.82</ele>
        <time>2024-05-09T08:39:06Z</time>
      </trkpt>
      <trkpt lat="44.94051" lon="4.70361">
        <ele>614.9</ele>
        <time>2024-05-09T08:39:21Z</time>
      </trkpt>
      <trkpt lat="44.94077" lon="4.7037">
        <ele>614.9</ele>
        <time>2024-05-09T08:39:40Z</time>
      </trkpt>
      <trkpt lat="44.9411" lon="4.70377">
        <ele>615.86</ele>
        <time>2024-05-09T08:40:00Z</time>
      </trkpt>
      <trkpt lat="44.94141" lon="4.70383">
        <ele>617.3</ele>
        <time>2024-05-09T08:40:18Z</time>
      </trkpt>
      <trkpt lat="44.94174" lon="4.70392">
        <ele>618.75</ele>
        <time>2024-05-09T08:40:38Z</time>
      </trkpt>
      <trkpt lat="44.94203" lon="4.70403">
        <ele>621.15</ele>
        <time>2024-05-09T08:40:56Z</time>
      </trkpt>
      <trkpt lat="44.94234" lon="4.70414">
        <ele>625.96</ele>
        <time>2024-05-09T08:41:14Z</time>
      </trkpt>
      <trkpt lat="44.94265" lon="4.70419">
        <ele>629.8</ele>
        <time>2024-05-09T08:41:33Z</time>
      </trkpt>
      <trkpt lat="44.94291" lon="4.70411">
        <ele>631.24</ele>
        <time>2024-05-09T08:41:51Z</time>
      </trkpt>
      <trkpt lat="44.94318" lon="4.70374">
        <ele>637.49</ele>
        <time>2024-05-09T08:42:13Z</time>
      </trkpt>
      <trkpt lat="44.94344" lon="4.70356">
        <ele>639.41</ele>
        <time>2024-05-09T08:42:32Z</time>
      </trkpt>
      <trkpt lat="44.94352" lon="4.70344">
        <ele>639.89</ele>
        <time>2024-05-09T08:42:39Z</time>
      </trkpt>
      <trkpt lat="44.94362" lon="4.70294">
        <ele>644.7</ele>
        <time>2024-05-09T08:42:59Z</time>
      </trkpt>
      <trkpt lat="44.9438" lon="4.70264">
        <ele>646.62</ele>
        <time>2024-05-09T08:43:17Z</time>
      </trkpt>
      <trkpt lat="44.94396" lon="4.70248">
        <ele>658.16</ele>
        <time>2024-05-09T08:43:31Z</time>
      </trkpt>
      <trkpt lat="44.944" lon="4.70241">
        <ele>658.64</ele>
        <time>2024-05-09T08:43:35Z</time>
      </trkpt>
      <trkpt lat="44.94409" lon="4.70235">
        <ele>661.04</ele>
        <time>2024-05-09T08:43:41Z</time>
      </trkpt>
      <trkpt lat="44.94426" lon="4.70244">
        <ele>663.93</ele>
        <time>2024-05-09T08:43:56Z</time>
      </trkpt>
      <trkpt lat="44.94404" lon="4.70212">
        <ele>667.29</ele>
        <time>2024-05-09T08:44:18Z</time>
      </trkpt>
      <trkpt lat="44.94383" lon="4.70181">
        <ele>667.29</ele>
        <time>2024-05-09T08:44:39Z</time>
      </trkpt>
      <trkpt lat="44.94364" lon="4.70149">
        <ele>668.73</ele>
        <time>2024-05-09T08:44:56Z</time>
      </trkpt>
      <trkpt lat="44.94348" lon="4.70108">
        <ele>674.98</ele>
        <time>2024-05-09T08:45:17Z</time>
      </trkpt>
      <trkpt lat="44.94348" lon="4.70074">
        <ele>679.31</ele>
        <time>2024-05-09T08:45:34Z</time>
      </trkpt>
      <trkpt lat="44.94347" lon="4.70037">
        <ele>684.12</ele>
        <time>2024-05-09T08:45:52Z</time>
      </trkpt>
      <trkpt lat="44.94339" lon="4.70005">
        <ele>686.52</ele>
        <time>2024-05-09T08:46:07Z</time>
      </trkpt>
      <trkpt lat="44.94339" lon="4.69966">
        <ele>686.52</ele>
        <time>2024-05-09T08:46:25Z</time>
      </trkpt>
      <trkpt lat="44.94332" lon="4.69912">
        <ele>686.04</ele>
        <time>2024-05-09T08:46:49Z</time>
      </trkpt>
      <trkpt lat="44.94323" lon="4.69881">
        <ele>687.96</ele>
        <time>2024-05-09T08:47:06Z</time>
      </trkpt>
      <trkpt lat="44.94325" lon="4.6986">
        <ele>690.36</ele>
        <time>2024-05-09T08:47:17Z</time>
      </trkpt>
      <trkpt lat="44.94324" lon="4.69819">
        <ele>693.73</ele>
        <time>2024-05-09T08:47:37Z</time>
      </trkpt>
      <trkpt lat="44.9432" lon="4.6978">
        <ele>695.65</ele>
        <time>2024-05-09T08:47:56Z</time>
      </trkpt>
      <trkpt lat="44.94306" lon="4.69738">
        <ele>698.05</ele>
        <time>2024-05-09T08:48:17Z</time>
      </trkpt>
      <trkpt lat="44.94289" lon="4.69698">
        <ele>698.53</ele>
        <time>2024-05-09T08:48:39Z</time>
      </trkpt>
      <trkpt lat="44.94274" lon="4.69668">
        <ele>699.02</ele>
        <time>2024-05-09T08:49:00Z</time>
      </trkpt>
      <trkpt lat="44.94257" lon="4.69636">
        <ele>700.46</ele>
        <time>2024-05-09T08:49:19Z</time>
      </trkpt>
      <trkpt lat="44.94242" lon="4.69604">
        <ele>702.38</ele>
        <time>2024-05-09T08:49:38Z</time>
      </trkpt>
      <trkpt lat="44.9423" lon="4.69566">
        <ele>706.23</ele>
        <time>2024-05-09T08:49:57Z</time>
      </trkpt>
      <trkpt lat="44.94228" lon="4.69531">
        <ele>709.11</ele>
        <time>2024-05-09T08:50:15Z</time>
      </trkpt>
      <trkpt lat="44.94217" lon="4.6949">
        <ele>708.63</ele>
        <time>2024-05-09T08:50:33Z</time>
      </trkpt>
      <trkpt lat="44.94206" lon="4.69451">
        <ele>709.59</ele>
        <time>2024-05-09T08:50:54Z</time>
      </trkpt>
      <trkpt lat="44.94189" lon="4.69421">
        <ele>709.11</ele>
        <time>2024-05-09T08:51:13Z</time>
      </trkpt>
      <trkpt lat="44.94165" lon="4.69408">
        <ele>711.51</ele>
        <time>2024-05-09T08:51:30Z</time>
      </trkpt>
      <trkpt lat="44.94157" lon="4.69404">
        <ele>712.47</ele>
        <time>2024-05-09T08:51:34Z</time>
      </trkpt>
      <trkpt lat="44.94131" lon="4.69389">
        <ele>719.68</ele>
        <time>2024-05-09T08:51:52Z</time>
      </trkpt>
      <trkpt lat="44.94118" lon="4.69373">
        <ele>726.41</ele>
        <time>2024-05-09T08:52:04Z</time>
      </trkpt>
      <trkpt lat="44.94099" lon="4.69351">
        <ele>731.22</ele>
        <time>2024-05-09T08:52:21Z</time>
      </trkpt>
      <trkpt lat="44.9408" lon="4.69332">
        <ele>735.07</ele>
        <time>2024-05-09T08:52:37Z</time>
      </trkpt>
      <trkpt lat="44.9405" lon="4.69308">
        <ele>736.51</ele>
        <time>2024-05-09T08:52:57Z</time>
      </trkpt>
      <trkpt lat="44.94034" lon="4.69279">
        <ele>737.95</ele>
        <time>2024-05-09T08:53:13Z</time>
      </trkpt>
      <trkpt lat="44.9403" lon="4.69257">
        <ele>742.28</ele>
        <time>2024-05-09T08:53:27Z</time>
      </trkpt>
      <trkpt lat="44.9402" lon="4.69234">
        <ele>747.08</ele>
        <time>2024-05-09T08:53:40Z</time>
      </trkpt>
      <trkpt lat="44.94016" lon="4.69231">
        <ele>747.56</ele>
        <time>2024-05-09T08:53:44Z</time>
      </trkpt>
      <trkpt lat="44.93998" lon="4.69201">
        <ele>751.41</ele>
        <time>2024-05-09T08:54:01Z</time>
      </trkpt>
      <trkpt lat="44.93985" lon="4.69193">
        <ele>756.21</ele>
        <time>2024-05-09T08:54:12Z</time>
      </trkpt>
      <trkpt lat="44.9398" lon="4.69189">
        <ele>758.14</ele>
        <time>2024-05-09T08:54:16Z</time>
      </trkpt>
      <trkpt lat="44.93959" lon="4.6917">
        <ele>767.27</ele>
        <time>2024-05-09T08:54:34Z</time>
      </trkpt>
      <trkpt lat="44.93942" lon="4.69153">
        <ele>768.71</ele>
        <time>2024-05-09T08:54:50Z</time>
      </trkpt>
      <trkpt lat="44.93927" lon="4.69133">
        <ele>766.79</ele>
        <time>2024-05-09T08:55:05Z</time>
      </trkpt>
      <trkpt lat="44.93914" lon="4.69099">
        <ele>764.87</ele>
        <time>2024-05-09T08:55:23Z</time>
      </trkpt>
      <trkpt lat="44.93907" lon="4.69064">
        <ele>762.46</ele>
        <time>2024-05-09T08:55:42Z</time>
      </trkpt>
      <trkpt lat="44.93905" lon="4.69051">
        <ele>762.46</ele>
        <time>2024-05-09T08:55:47Z</time>
      </trkpt>
      <trkpt lat="44.93901" lon="4.69023">
        <ele>767.27</ele>
        <time>2024-05-09T08:56:01Z</time>
      </trkpt>
      <trkpt lat="44.93895" lon="4.68999">
        <ele>772.56</ele>
        <time>2024-05-09T08:56:15Z</time>
      </trkpt>
      <trkpt lat="44.93898" lon="4.68967">
        <ele>770.63</ele>
        <time>2024-05-09T08:56:31Z</time>
      </trkpt>
      <trkpt lat="44.939" lon="4.68948">
        <ele>771.6</ele>
        <time>2024-05-09T08:56:42Z</time>
      </trkpt>
      <trkpt lat="44.93904" lon="4.68939">
        <ele>770.63</ele>
        <time>2024-05-09T08:56:55Z</time>
      </trkpt>
      <trkpt lat="44.93902" lon="4.68943">
        <ele>770.15</ele>
        <time>2024-05-09T08:57:07Z</time>
      </trkpt>
      <trkpt lat="44.93897" lon="4.68949">
        <ele>771.6</ele>
        <time>2024-05-09T08:57:12Z</time>
      </trkpt>
      <trkpt lat="44.93896" lon="4.68957">
        <ele>773.04</ele>
        <time>2024-05-09T08:57:16Z</time>
      </trkpt>
      <trkpt lat="44.93901" lon="4.68978">
        <ele>776.88</ele>
        <time>2024-05-09T08:57:29Z</time>
      </trkpt>
      <trkpt lat="44.93906" lon="4.68978">
        <ele>777.36</ele>
        <time>2024-05-09T08:57:33Z</time>
      </trkpt>
      <trkpt lat="44.93929" lon="4.68962">
        <ele>777.84</ele>
        <time>2024-05-09T08:57:50Z</time>
      </trkpt>
      <trkpt lat="44.93933" lon="4.68955">
        <ele>778.81</ele>
        <time>2024-05-09T08:57:55Z</time>
      </trkpt>
      <trkpt lat="44.93948" lon="4.68945">
        <ele>777.84</ele>
        <time>2024-05-09T08:58:06Z</time>
      </trkpt>
      <trkpt lat="44.93967" lon="4.68926">
        <ele>774.96</ele>
        <time>2024-05-09T08:58:20Z</time>
      </trkpt>
      <trkpt lat="44.93982" lon="4.68912">
        <ele>772.08</ele>
        <time>2024-05-09T08:58:34Z</time>
      </trkpt>
      <trkpt lat="44.9399" lon="4.68903">
        <ele>772.56</ele>
        <time>2024-05-09T08:58:41Z</time>
      </trkpt>
      <trkpt lat="44.93995" lon="4.68892">
        <ele>774</ele>
        <time>2024-05-09T08:58:48Z</time>
      </trkpt>
      <trkpt lat="44.9401" lon="4.68866">
        <ele>772.56</ele>
        <time>2024-05-09T08:59:07Z</time>
      </trkpt>
      <trkpt lat="44.94018" lon="4.68837">
        <ele>772.08</ele>
        <time>2024-05-09T08:59:23Z</time>
      </trkpt>
      <trkpt lat="44.94024" lon="4.68817">
        <ele>764.39</ele>
        <time>2024-05-09T08:59:38Z</time>
      </trkpt>
      <trkpt lat="44.94033" lon="4.68788">
        <ele>757.66</ele>
        <time>2024-05-09T08:59:54Z</time>
      </trkpt>
      <trkpt lat="44.94044" lon="4.68763">
        <ele>750.93</ele>
        <time>2024-05-09T09:00:09Z</time>
      </trkpt>
      <trkpt lat="44.94054" lon="4.68725">
        <ele>740.35</ele>
        <time>2024-05-09T09:00:28Z</time>
      </trkpt>
      <trkpt lat="44.94063" lon="4.68701">
        <ele>732.66</ele>
        <time>2024-05-09T09:00:46Z</time>
      </trkpt>
      <trkpt lat="44.94072" lon="4.6868">
        <ele>728.82</ele>
        <time>2024-05-09T09:01:05Z</time>
      </trkpt>
      <trkpt lat="44.94075" lon="4.68678">
        <ele>725.45</ele>
        <time>2024-05-09T09:01:25Z</time>
      </trkpt>
      <trkpt lat="44.94076" lon="4.68676">
        <ele>726.89</ele>
        <time>2024-05-09T09:01:50Z</time>
      </trkpt>
      <trkpt lat="44.94075" lon="4.68677">
        <ele>730.74</ele>
        <time>2024-05-09T09:02:12Z</time>
      </trkpt>
      <trkpt lat="44.94081" lon="4.68675">
        <ele>731.22</ele>
        <time>2024-05-09T09:02:39Z</time>
      </trkpt>
      <trkpt lat="44.94079" lon="4.68678">
        <ele>729.3</ele>
        <time>2024-05-09T09:03:02Z</time>
      </trkpt>
      <trkpt lat="44.9406" lon="4.68691">
        <ele>730.74</ele>
        <time>2024-05-09T09:03:23Z</time>
      </trkpt>
      <trkpt lat="44.9405" lon="4.68692">
        <ele>733.14</ele>
        <time>2024-05-09T09:03:45Z</time>
      </trkpt>
      <trkpt lat="44.94052" lon="4.68691">
        <ele>732.18</ele>
        <time>2024-05-09T09:04:10Z</time>
      </trkpt>
      <trkpt lat="44.94062" lon="4.68717">
        <ele>732.18</ele>
        <time>2024-05-09T09:04:44Z</time>
      </trkpt>
      <trkpt lat="44.94061" lon="4.6869">
        <ele>737.47</ele>
        <time>2024-05-09T09:05:12Z</time>
      </trkpt>
      <trkpt lat="44.94057" lon="4.68692">
        <ele>740.83</ele>
        <time>2024-05-09T09:05:37Z</time>
      </trkpt>
      <trkpt lat="44.94069" lon="4.68678">
        <ele>747.08</ele>
        <time>2024-05-09T09:05:58Z</time>
      </trkpt>
      <trkpt lat="44.94078" lon="4.68665">
        <ele>741.31</ele>
        <time>2024-05-09T09:06:20Z</time>
      </trkpt>
      <trkpt lat="44.94076" lon="4.68668">
        <ele>737.47</ele>
        <time>2024-05-09T09:06:44Z</time>
      </trkpt>
      <trkpt lat="44.9408" lon="4.68677">
        <ele>732.66</ele>
        <time>2024-05-09T09:07:06Z</time>
      </trkpt>
      <trkpt lat="44.94074" lon="4.68685">
        <ele>731.7</ele>
        <time>2024-05-09T09:07:26Z</time>
      </trkpt>
      <trkpt lat="44.94076" lon="4.68678">
        <ele>732.18</ele>
        <time>2024-05-09T09:07:55Z</time>
      </trkpt>
      <trkpt lat="44.94069" lon="4.68693">
        <ele>728.34</ele>
        <time>2024-05-09T09:08:13Z</time>
      </trkpt>
      <trkpt lat="44.94088" lon="4.68663">
        <ele>730.74</ele>
        <time>2024-05-09T09:08:29Z</time>
      </trkpt>
      <trkpt lat="44.94102" lon="4.68633">
        <ele>722.57</ele>
        <time>2024-05-09T09:08:46Z</time>
      </trkpt>
      <trkpt lat="44.94106" lon="4.68618">
        <ele>724.01</ele>
        <time>2024-05-09T09:09:03Z</time>
      </trkpt>
      <trkpt lat="44.94105" lon="4.68621">
        <ele>726.41</ele>
        <time>2024-05-09T09:09:16Z</time>
      </trkpt>
      <trkpt lat="44.94112" lon="4.68603">
        <ele>728.34</ele>
        <time>2024-05-09T09:09:40Z</time>
      </trkpt>
      <trkpt lat="44.94114" lon="4.68587">
        <ele>728.34</ele>
        <time>2024-05-09T09:09:47Z</time>
      </trkpt>
      <trkpt lat="44.94117" lon="4.68542">
        <ele>728.34</ele>
        <time>2024-05-09T09:10:06Z</time>
      </trkpt>
      <trkpt lat="44.94117" lon="4.68538">
        <ele>728.34</ele>
        <time>2024-05-09T09:10:22Z</time>
      </trkpt>
      <trkpt lat="44.94117" lon="4.68528">
        <ele>729.3</ele>
        <time>2024-05-09T09:10:39Z</time>
      </trkpt>
      <trkpt lat="44.94117" lon="4.68524">
        <ele>728.82</ele>
        <time>2024-05-09T09:10:41Z</time>
      </trkpt>
      <trkpt lat="44.94126" lon="4.68482">
        <ele>723.53</ele>
        <time>2024-05-09T09:11:01Z</time>
      </trkpt>
      <trkpt lat="44.94129" lon="4.68466">
        <ele>721.61</ele>
        <time>2024-05-09T09:11:09Z</time>
      </trkpt>
      <trkpt lat="44.94132" lon="4.68442">
        <ele>718.24</ele>
        <time>2024-05-09T09:11:24Z</time>
      </trkpt>
      <trkpt lat="44.94136" lon="4.68401">
        <ele>715.84</ele>
        <time>2024-05-09T09:11:44Z</time>
      </trkpt>
      <trkpt lat="44.94134" lon="4.68372">
        <ele>712.47</ele>
        <time>2024-05-09T09:11:59Z</time>
      </trkpt>
      <trkpt lat="44.94136" lon="4.68342">
        <ele>709.59</ele>
        <time>2024-05-09T09:12:16Z</time>
      </trkpt>
      <trkpt lat="44.94135" lon="4.68306">
        <ele>710.55</ele>
        <time>2024-05-09T09:12:32Z</time>
      </trkpt>
      <trkpt lat="44.94125" lon="4.68278">
        <ele>713.44</ele>
        <time>2024-05-09T09:12:47Z</time>
      </trkpt>
      <trkpt lat="44.94117" lon="4.68244">
        <ele>711.51</ele>
        <time>2024-05-09T09:13:06Z</time>
      </trkpt>
      <trkpt lat="44.94108" lon="4.68213">
        <ele>709.59</ele>
        <time>2024-05-09T09:13:23Z</time>
      </trkpt>
      <trkpt lat="44.94103" lon="4.68183">
        <ele>707.19</ele>
        <time>2024-05-09T09:13:39Z</time>
      </trkpt>
      <trkpt lat="44.94108" lon="4.68167">
        <ele>702.38</ele>
        <time>2024-05-09T09:13:50Z</time>
      </trkpt>
      <trkpt lat="44.94114" lon="4.68136">
        <ele>695.17</ele>
        <time>2024-05-09T09:14:05Z</time>
      </trkpt>
      <trkpt lat="44.94113" lon="4.68092">
        <ele>693.73</ele>
        <time>2024-05-09T09:14:23Z</time>
      </trkpt>
      <trkpt lat="44.94112" lon="4.68058">
        <ele>692.77</ele>
        <time>2024-05-09T09:14:44Z</time>
      </trkpt>
      <trkpt lat="44.94112" lon="4.68052">
        <ele>692.77</ele>
        <time>2024-05-09T09:15:10Z</time>
      </trkpt>
      <trkpt lat="44.9411" lon="4.68022">
        <ele>696.61</ele>
        <time>2024-05-09T09:15:28Z</time>
      </trkpt>
      <trkpt lat="44.9412" lon="4.68005">
        <ele>697.57</ele>
        <time>2024-05-09T09:15:44Z</time>
      </trkpt>
      <trkpt lat="44.94125" lon="4.68">
        <ele>697.09</ele>
        <time>2024-05-09T09:15:48Z</time>
      </trkpt>
      <trkpt lat="44.9415" lon="4.67975">
        <ele>696.61</ele>
        <time>2024-05-09T09:16:05Z</time>
      </trkpt>
      <trkpt lat="44.94177" lon="4.67939">
        <ele>696.13</ele>
        <time>2024-05-09T09:16:27Z</time>
      </trkpt>
      <trkpt lat="44.94179" lon="4.67923">
        <ele>696.61</ele>
        <time>2024-05-09T09:16:38Z</time>
      </trkpt>
      <trkpt lat="44.94174" lon="4.67879">
        <ele>695.65</ele>
        <time>2024-05-09T09:16:58Z</time>
      </trkpt>
      <trkpt lat="44.94174" lon="4.67823">
        <ele>695.17</ele>
        <time>2024-05-09T09:17:21Z</time>
      </trkpt>
      <trkpt lat="44.94185" lon="4.67796">
        <ele>693.73</ele>
        <time>2024-05-09T09:17:36Z</time>
      </trkpt>
      <trkpt lat="44.94183" lon="4.67784">
        <ele>691.33</ele>
        <time>2024-05-09T09:17:52Z</time>
      </trkpt>
      <trkpt lat="44.94181" lon="4.67789">
        <ele>687</ele>
        <time>2024-05-09T09:18:17Z</time>
      </trkpt>
      <trkpt lat="44.94184" lon="4.67781">
        <ele>690.36</ele>
        <time>2024-05-09T09:18:31Z</time>
      </trkpt>
      <trkpt lat="44.94181" lon="4.67779">
        <ele>690.36</ele>
        <time>2024-05-09T09:18:35Z</time>
      </trkpt>
      <trkpt lat="44.9417" lon="4.67763">
        <ele>689.88</ele>
        <time>2024-05-09T09:18:51Z</time>
      </trkpt>
      <trkpt lat="44.94152" lon="4.67733">
        <ele>688.92</ele>
        <time>2024-05-09T09:19:10Z</time>
      </trkpt>
      <trkpt lat="44.94129" lon="4.67697">
        <ele>688.92</ele>
        <time>2024-05-09T09:19:31Z</time>
      </trkpt>
      <trkpt lat="44.94102" lon="4.67674">
        <ele>689.88</ele>
        <time>2024-05-09T09:19:54Z</time>
      </trkpt>
      <trkpt lat="44.9408" lon="4.67656">
        <ele>691.33</ele>
        <time>2024-05-09T09:20:13Z</time>
      </trkpt>
      <trkpt lat="44.94058" lon="4.67632">
        <ele>693.73</ele>
        <time>2024-05-09T09:20:32Z</time>
      </trkpt>
      <trkpt lat="44.94055" lon="4.67601">
        <ele>695.17</ele>
        <time>2024-05-09T09:20:48Z</time>
      </trkpt>
      <trkpt lat="44.94039" lon="4.67559">
        <ele>694.69</ele>
        <time>2024-05-09T09:21:11Z</time>
      </trkpt>
      <trkpt lat="44.9401" lon="4.67525">
        <ele>690.84</ele>
        <time>2024-05-09T09:21:35Z</time>
      </trkpt>
      <trkpt lat="44.93982" lon="4.67489">
        <ele>690.36</ele>
        <time>2024-05-09T09:22:00Z</time>
      </trkpt>
      <trkpt lat="44.93958" lon="4.67459">
        <ele>691.33</ele>
        <time>2024-05-09T09:22:22Z</time>
      </trkpt>
      <trkpt lat="44.93931" lon="4.67444">
        <ele>691.81</ele>
        <time>2024-05-09T09:22:42Z</time>
      </trkpt>
      <trkpt lat="44.93897" lon="4.67432">
        <ele>692.29</ele>
        <time>2024-05-09T09:23:05Z</time>
      </trkpt>
      <trkpt lat="44.93869" lon="4.67424">
        <ele>695.65</ele>
        <time>2024-05-09T09:23:24Z</time>
      </trkpt>
      <trkpt lat="44.93844" lon="4.67408">
        <ele>697.09</ele>
        <time>2024-05-09T09:23:42Z</time>
      </trkpt>
      <trkpt lat="44.93811" lon="4.67386">
        <ele>696.61</ele>
        <time>2024-05-09T09:24:06Z</time>
      </trkpt>
      <trkpt lat="44.93789" lon="4.67353">
        <ele>694.21</ele>
        <time>2024-05-09T09:24:28Z</time>
      </trkpt>
      <trkpt lat="44.93787" lon="4.67325">
        <ele>690.36</ele>
        <time>2024-05-09T09:24:44Z</time>
      </trkpt>
      <trkpt lat="44.93783" lon="4.67283">
        <ele>688.44</ele>
        <time>2024-05-09T09:25:04Z</time>
      </trkpt>
      <trkpt lat="44.93762" lon="4.67246">
        <ele>689.4</ele>
        <time>2024-05-09T09:25:25Z</time>
      </trkpt>
      <trkpt lat="44.93745" lon="4.67199">
        <ele>689.4</ele>
        <time>2024-05-09T09:25:51Z</time>
      </trkpt>
      <trkpt lat="44.93743" lon="4.6719">
        <ele>690.36</ele>
        <time>2024-05-09T09:25:56Z</time>
      </trkpt>
      <trkpt lat="44.93727" lon="4.6715">
        <ele>690.84</ele>
        <time>2024-05-09T09:26:18Z</time>
      </trkpt>
      <trkpt lat="44.93708" lon="4.67133">
        <ele>691.81</ele>
        <time>2024-05-09T09:26:33Z</time>
      </trkpt>
      <trkpt lat="44.93681" lon="4.67123">
        <ele>687</ele>
        <time>2024-05-09T09:26:53Z</time>
      </trkpt>
      <trkpt lat="44.93654" lon="4.67107">
        <ele>686.04</ele>
        <time>2024-05-09T09:27:10Z</time>
      </trkpt>
      <trkpt lat="44.93649" lon="4.6709">
        <ele>687.96</ele>
        <time>2024-05-09T09:27:17Z</time>
      </trkpt>
      <trkpt lat="44.93647" lon="4.67032">
        <ele>693.25</ele>
        <time>2024-05-09T09:27:39Z</time>
      </trkpt>
      <trkpt lat="44.9364" lon="4.66997">
        <ele>699.5</ele>
        <time>2024-05-09T09:27:56Z</time>
      </trkpt>
      <trkpt lat="44.93626" lon="4.66963">
        <ele>699.5</ele>
        <time>2024-05-09T09:28:15Z</time>
      </trkpt>
      <trkpt lat="44.93614" lon="4.66925">
        <ele>698.53</ele>
        <time>2024-05-09T09:28:35Z</time>
      </trkpt>
      <trkpt lat="44.93602" lon="4.66891">
        <ele>700.94</ele>
        <time>2024-05-09T09:28:55Z</time>
      </trkpt>
      <trkpt lat="44.93601" lon="4.66852">
        <ele>704.78</ele>
        <time>2024-05-09T09:29:14Z</time>
      </trkpt>
      <trkpt lat="44.93605" lon="4.66824">
        <ele>704.78</ele>
        <time>2024-05-09T09:29:28Z</time>
      </trkpt>
      <trkpt lat="44.9361" lon="4.66779">
        <ele>702.86</ele>
        <time>2024-05-09T09:29:47Z</time>
      </trkpt>
      <trkpt lat="44.93613" lon="4.66767">
        <ele>702.86</ele>
        <time>2024-05-09T09:29:52Z</time>
      </trkpt>
      <trkpt lat="44.93615" lon="4.66724">
        <ele>705.75</ele>
        <time>2024-05-09T09:30:12Z</time>
      </trkpt>
      <trkpt lat="44.93614" lon="4.66715">
        <ele>710.07</ele>
        <time>2024-05-09T09:30:18Z</time>
      </trkpt>
      <trkpt lat="44.9361" lon="4.66674">
        <ele>717.76</ele>
        <time>2024-05-09T09:30:35Z</time>
      </trkpt>
      <trkpt lat="44.93603" lon="4.66652">
        <ele>717.76</ele>
        <time>2024-05-09T09:30:46Z</time>
      </trkpt>
      <trkpt lat="44.93582" lon="4.66616">
        <ele>713.92</ele>
        <time>2024-05-09T09:31:06Z</time>
      </trkpt>
      <trkpt lat="44.9358" lon="4.66609">
        <ele>713.44</ele>
        <time>2024-05-09T09:31:10Z</time>
      </trkpt>
      <trkpt lat="44.93562" lon="4.66583">
        <ele>712.47</ele>
        <time>2024-05-09T09:31:27Z</time>
      </trkpt>
      <trkpt lat="44.93542" lon="4.66552">
        <ele>716.32</ele>
        <time>2024-05-09T09:31:46Z</time>
      </trkpt>
      <trkpt lat="44.93526" lon="4.6653">
        <ele>721.13</ele>
        <time>2024-05-09T09:32:03Z</time>
      </trkpt>
      <trkpt lat="44.93504" lon="4.66496">
        <ele>724.49</ele>
        <time>2024-05-09T09:32:24Z</time>
      </trkpt>
      <trkpt lat="44.9349" lon="4.66471">
        <ele>726.41</ele>
        <time>2024-05-09T09:32:38Z</time>
      </trkpt>
      <trkpt lat="44.93487" lon="4.66465">
        <ele>726.41</ele>
        <time>2024-05-09T09:32:42Z</time>
      </trkpt>
      <trkpt lat="44.93473" lon="4.66439">
        <ele>723.05</ele>
        <time>2024-05-09T09:32:59Z</time>
      </trkpt>
      <trkpt lat="44.93455" lon="4.6641">
        <ele>723.53</ele>
        <time>2024-05-09T09:33:17Z</time>
      </trkpt>
      <trkpt lat="44.93446" lon="4.66391">
        <ele>724.01</ele>
        <time>2024-05-09T09:33:27Z</time>
      </trkpt>
      <trkpt lat="44.9345" lon="4.66367">
        <ele>729.3</ele>
        <time>2024-05-09T09:33:44Z</time>
      </trkpt>
      <trkpt lat="44.93451" lon="4.66368">
        <ele>731.7</ele>
        <time>2024-05-09T09:34:04Z</time>
      </trkpt>
      <trkpt lat="44.93447" lon="4.66387">
        <ele>731.22</ele>
        <time>2024-05-09T09:34:20Z</time>
      </trkpt>
      <trkpt lat="44.93458" lon="4.66417">
        <ele>727.86</ele>
        <time>2024-05-09T09:34:35Z</time>
      </trkpt>
      <trkpt lat="44.93474" lon="4.66441">
        <ele>727.37</ele>
        <time>2024-05-09T09:34:50Z</time>
      </trkpt>
      <trkpt lat="44.9348" lon="4.66459">
        <ele>725.93</ele>
        <time>2024-05-09T09:35:05Z</time>
      </trkpt>
      <trkpt lat="44.93476" lon="4.66456">
        <ele>725.45</ele>
        <time>2024-05-09T09:35:09Z</time>
      </trkpt>
      <trkpt lat="44.93461" lon="4.66437">
        <ele>724.49</ele>
        <time>2024-05-09T09:35:25Z</time>
      </trkpt>
      <trkpt lat="44.93436" lon="4.66421">
        <ele>723.53</ele>
        <time>2024-05-09T09:35:42Z</time>
      </trkpt>
      <trkpt lat="44.93411" lon="4.6641">
        <ele>720.16</ele>
        <time>2024-05-09T09:35:58Z</time>
      </trkpt>
      <trkpt lat="44.93386" lon="4.66393">
        <ele>719.68</ele>
        <time>2024-05-09T09:36:16Z</time>
      </trkpt>
      <trkpt lat="44.93365" lon="4.66373">
        <ele>716.8</ele>
        <time>2024-05-09T09:36:32Z</time>
      </trkpt>
      <trkpt lat="44.93339" lon="4.66349">
        <ele>713.92</ele>
        <time>2024-05-09T09:36:49Z</time>
      </trkpt>
      <trkpt lat="44.93317" lon="4.66329">
        <ele>719.2</ele>
        <time>2024-05-09T09:37:06Z</time>
      </trkpt>
      <trkpt lat="44.93297" lon="4.6631">
        <ele>720.16</ele>
        <time>2024-05-09T09:37:22Z</time>
      </trkpt>
      <trkpt lat="44.93276" lon="4.66296">
        <ele>722.09</ele>
        <time>2024-05-09T09:37:39Z</time>
      </trkpt>
      <trkpt lat="44.93254" lon="4.66273">
        <ele>723.53</ele>
        <time>2024-05-09T09:37:58Z</time>
      </trkpt>
      <trkpt lat="44.93239" lon="4.66238">
        <ele>722.09</ele>
        <time>2024-05-09T09:38:18Z</time>
      </trkpt>
      <trkpt lat="44.93221" lon="4.66193">
        <ele>724.97</ele>
        <time>2024-05-09T09:38:39Z</time>
      </trkpt>
      <trkpt lat="44.93205" lon="4.66157">
        <ele>725.93</ele>
        <time>2024-05-09T09:39:00Z</time>
      </trkpt>
      <trkpt lat="44.93179" lon="4.66134">
        <ele>726.89</ele>
        <time>2024-05-09T09:39:23Z</time>
      </trkpt>
      <trkpt lat="44.93148" lon="4.66128">
        <ele>731.22</ele>
        <time>2024-05-09T09:39:45Z</time>
      </trkpt>
      <trkpt lat="44.93127" lon="4.66114">
        <ele>741.31</ele>
        <time>2024-05-09T09:40:03Z</time>
      </trkpt>
      <trkpt lat="44.93119" lon="4.66115">
        <ele>740.83</ele>
        <time>2024-05-09T09:40:21Z</time>
      </trkpt>
      <trkpt lat="44.93102" lon="4.66107">
        <ele>742.28</ele>
        <time>2024-05-09T09:40:36Z</time>
      </trkpt>
      <trkpt lat="44.93076" lon="4.66096">
        <ele>742.76</ele>
        <time>2024-05-09T09:40:54Z</time>
      </trkpt>
      <trkpt lat="44.93053" lon="4.66084">
        <ele>742.76</ele>
        <time>2024-05-09T09:41:11Z</time>
      </trkpt>
      <trkpt lat="44.9302" lon="4.6607">
        <ele>744.2</ele>
        <time>2024-05-09T09:41:33Z</time>
      </trkpt>
      <trkpt lat="44.92992" lon="4.66057">
        <ele>744.2</ele>
        <time>2024-05-09T09:41:51Z</time>
      </trkpt>
      <trkpt lat="44.92966" lon="4.66048">
        <ele>742.76</ele>
        <time>2024-05-09T09:42:08Z</time>
      </trkpt>
      <trkpt lat="44.92942" lon="4.66034">
        <ele>742.76</ele>
        <time>2024-05-09T09:42:25Z</time>
      </trkpt>
      <trkpt lat="44.92929" lon="4.66009">
        <ele>739.87</ele>
        <time>2024-05-09T09:42:39Z</time>
      </trkpt>
      <trkpt lat="44.92927" lon="4.66007">
        <ele>740.35</ele>
        <time>2024-05-09T09:42:55Z</time>
      </trkpt>
      <trkpt lat="44.92921" lon="4.65988">
        <ele>740.83</ele>
        <time>2024-05-09T09:43:14Z</time>
      </trkpt>
      <trkpt lat="44.92892" lon="4.65965">
        <ele>742.28</ele>
        <time>2024-05-09T09:43:34Z</time>
      </trkpt>
      <trkpt lat="44.9286" lon="4.65965">
        <ele>742.28</ele>
        <time>2024-05-09T09:43:56Z</time>
      </trkpt>
      <trkpt lat="44.92828" lon="4.65973">
        <ele>742.76</ele>
        <time>2024-05-09T09:44:17Z</time>
      </trkpt>
      <trkpt lat="44.92795" lon="4.65967">
        <ele>742.28</ele>
        <time>2024-05-09T09:44:40Z</time>
      </trkpt>
      <trkpt lat="44.92756" lon="4.65957">
        <ele>744.2</ele>
        <time>2024-05-09T09:45:04Z</time>
      </trkpt>
      <trkpt lat="44.92748" lon="4.65955">
        <ele>743.72</ele>
        <time>2024-05-09T09:45:09Z</time>
      </trkpt>
      <trkpt lat="44.92736" lon="4.65951">
        <ele>744.2</ele>
        <time>2024-05-09T09:45:24Z</time>
      </trkpt>
      <trkpt lat="44.92716" lon="4.65942">
        <ele>745.16</ele>
        <time>2024-05-09T09:45:39Z</time>
      </trkpt>
      <trkpt lat="44.92693" lon="4.65934">
        <ele>746.12</ele>
        <time>2024-05-09T09:45:56Z</time>
      </trkpt>
      <trkpt lat="44.92676" lon="4.6594">
        <ele>746.6</ele>
        <time>2024-05-09T09:46:11Z</time>
      </trkpt>
      <trkpt lat="44.92646" lon="4.65951">
        <ele>747.56</ele>
        <time>2024-05-09T09:46:34Z</time>
      </trkpt>
      <trkpt lat="44.92617" lon="4.65964">
        <ele>748.52</ele>
        <time>2024-05-09T09:46:56Z</time>
      </trkpt>
      <trkpt lat="44.92589" lon="4.65976">
        <ele>754.77</ele>
        <time>2024-05-09T09:47:18Z</time>
      </trkpt>
      <trkpt lat="44.92564" lon="4.65986">
        <ele>758.14</ele>
        <time>2024-05-09T09:47:37Z</time>
      </trkpt>
      <trkpt lat="44.92559" lon="4.65992">
        <ele>756.69</ele>
        <time>2024-05-09T09:47:43Z</time>
      </trkpt>
      <trkpt lat="44.92561" lon="4.65998">
        <ele>756.21</ele>
        <time>2024-05-09T09:47:46Z</time>
      </trkpt>
      <trkpt lat="44.92565" lon="4.66012">
        <ele>756.21</ele>
        <time>2024-05-09T09:47:54Z</time>
      </trkpt>
      <trkpt lat="44.92555" lon="4.66028">
        <ele>755.73</ele>
        <time>2024-05-09T09:48:09Z</time>
      </trkpt>
      <trkpt lat="44.92557" lon="4.66023">
        <ele>756.21</ele>
        <time>2024-05-09T09:48:33Z</time>
      </trkpt>
      <trkpt lat="44.92549" lon="4.66034">
        <ele>757.66</ele>
        <time>2024-05-09T09:48:55Z</time>
      </trkpt>
      <trkpt lat="44.92536" lon="4.66059">
        <ele>762.46</ele>
        <time>2024-05-09T09:49:12Z</time>
      </trkpt>
      <trkpt lat="44.92535" lon="4.66063">
        <ele>762.94</ele>
        <time>2024-05-09T09:49:14Z</time>
      </trkpt>
      <trkpt lat="44.9254" lon="4.66107">
        <ele>760.54</ele>
        <time>2024-05-09T09:49:33Z</time>
      </trkpt>
      <trkpt lat="44.92547" lon="4.6613">
        <ele>760.54</ele>
        <time>2024-05-09T09:49:47Z</time>
      </trkpt>
      <trkpt lat="44.92561" lon="4.66181">
        <ele>763.42</ele>
        <time>2024-05-09T09:50:10Z</time>
      </trkpt>
      <trkpt lat="44.92554" lon="4.66221">
        <ele>768.23</ele>
        <time>2024-05-09T09:50:29Z</time>
      </trkpt>
      <trkpt lat="44.92538" lon="4.66249">
        <ele>768.23</ele>
        <time>2024-05-09T09:50:47Z</time>
      </trkpt>
      <trkpt lat="44.92522" lon="4.66272">
        <ele>767.27</ele>
        <time>2024-05-09T09:51:01Z</time>
      </trkpt>
      <trkpt lat="44.92514" lon="4.66304">
        <ele>766.79</ele>
        <time>2024-05-09T09:51:16Z</time>
      </trkpt>
      <trkpt lat="44.92512" lon="4.66331">
        <ele>764.39</ele>
        <time>2024-05-09T09:51:30Z</time>
      </trkpt>
      <trkpt lat="44.92508" lon="4.66364">
        <ele>764.39</ele>
        <time>2024-05-09T09:51:45Z</time>
      </trkpt>
      <trkpt lat="44.92508" lon="4.66394">
        <ele>764.39</ele>
        <time>2024-05-09T09:52:01Z</time>
      </trkpt>
      <trkpt lat="44.92503" lon="4.66438">
        <ele>763.9</ele>
        <time>2024-05-09T09:52:22Z</time>
      </trkpt>
      <trkpt lat="44.925" lon="4.66455">
        <ele>763.9</ele>
        <time>2024-05-09T09:52:30Z</time>
      </trkpt>
      <trkpt lat="44.92492" lon="4.66484">
        <ele>774</ele>
        <time>2024-05-09T09:52:45Z</time>
      </trkpt>
      <trkpt lat="44.92494" lon="4.66522">
        <ele>780.25</ele>
        <time>2024-05-09T09:53:01Z</time>
      </trkpt>
      <trkpt lat="44.92492" lon="4.6655">
        <ele>781.69</ele>
        <time>2024-05-09T09:53:18Z</time>
      </trkpt>
      <trkpt lat="44.92496" lon="4.66558">
        <ele>784.09</ele>
        <time>2024-05-09T09:53:46Z</time>
      </trkpt>
      <trkpt lat="44.92501" lon="4.66594">
        <ele>782.65</ele>
        <time>2024-05-09T09:54:07Z</time>
      </trkpt>
      <trkpt lat="44.92499" lon="4.66599">
        <ele>784.09</ele>
        <time>2024-05-09T09:54:10Z</time>
      </trkpt>
      <trkpt lat="44.92489" lon="4.66629">
        <ele>784.57</ele>
        <time>2024-05-09T09:54:27Z</time>
      </trkpt>
      <trkpt lat="44.92478" lon="4.66647">
        <ele>778.81</ele>
        <time>2024-05-09T09:54:45Z</time>
      </trkpt>
      <trkpt lat="44.92439" lon="4.66666">
        <ele>780.25</ele>
        <time>2024-05-09T09:55:07Z</time>
      </trkpt>
      <trkpt lat="44.9242" lon="4.66667">
        <ele>782.65</ele>
        <time>2024-05-09T09:55:21Z</time>
      </trkpt>
      <trkpt lat="44.92395" lon="4.66676">
        <ele>787.94</ele>
        <time>2024-05-09T09:55:39Z</time>
      </trkpt>
      <trkpt lat="44.92378" lon="4.6669">
        <ele>789.86</ele>
        <time>2024-05-09T09:55:54Z</time>
      </trkpt>
      <trkpt lat="44.92359" lon="4.66716">
        <ele>793.22</ele>
        <time>2024-05-09T09:56:12Z</time>
      </trkpt>
      <trkpt lat="44.92341" lon="4.66737">
        <ele>793.71</ele>
        <time>2024-05-09T09:56:29Z</time>
      </trkpt>
      <trkpt lat="44.92327" lon="4.66753">
        <ele>795.15</ele>
        <time>2024-05-09T09:56:47Z</time>
      </trkpt>
      <trkpt lat="44.92318" lon="4.66778">
        <ele>797.55</ele>
        <time>2024-05-09T09:57:02Z</time>
      </trkpt>
      <trkpt lat="44.92304" lon="4.66801">
        <ele>798.99</ele>
        <time>2024-05-09T09:57:22Z</time>
      </trkpt>
      <trkpt lat="44.923" lon="4.66806">
        <ele>799.47</ele>
        <time>2024-05-09T09:57:25Z</time>
      </trkpt>
      <trkpt lat="44.92277" lon="4.6681">
        <ele>797.07</ele>
        <time>2024-05-09T09:57:44Z</time>
      </trkpt>
      <trkpt lat="44.92241" lon="4.66831">
        <ele>794.67</ele>
        <time>2024-05-09T09:58:05Z</time>
      </trkpt>
      <trkpt lat="44.92206" lon="4.6683">
        <ele>793.71</ele>
        <time>2024-05-09T09:58:29Z</time>
      </trkpt>
      <trkpt lat="44.92175" lon="4.66823">
        <ele>792.26</ele>
        <time>2024-05-09T09:58:52Z</time>
      </trkpt>
      <trkpt lat="44.92149" lon="4.66812">
        <ele>794.19</ele>
        <time>2024-05-09T09:59:11Z</time>
      </trkpt>
      <trkpt lat="44.92123" lon="4.66809">
        <ele>796.11</ele>
        <time>2024-05-09T09:59:33Z</time>
      </trkpt>
      <trkpt lat="44.92088" lon="4.66816">
        <ele>797.07</ele>
        <time>2024-05-09T09:59:54Z</time>
      </trkpt>
      <trkpt lat="44.92056" lon="4.66819">
        <ele>798.99</ele>
        <time>2024-05-09T10:00:16Z</time>
      </trkpt>
      <trkpt lat="44.92025" lon="4.66805">
        <ele>801.88</ele>
        <time>2024-05-09T10:00:39Z</time>
      </trkpt>
      <trkpt lat="44.92008" lon="4.66794">
        <ele>808.13</ele>
        <time>2024-05-09T10:00:53Z</time>
      </trkpt>
      <trkpt lat="44.91997" lon="4.6679">
        <ele>806.68</ele>
        <time>2024-05-09T10:01:02Z</time>
      </trkpt>
      <trkpt lat="44.91979" lon="4.66809">
        <ele>803.8</ele>
        <time>2024-05-09T10:01:19Z</time>
      </trkpt>
      <trkpt lat="44.91969" lon="4.66834">
        <ele>805.24</ele>
        <time>2024-05-09T10:01:35Z</time>
      </trkpt>
      <trkpt lat="44.91948" lon="4.66846">
        <ele>810.53</ele>
        <time>2024-05-09T10:01:48Z</time>
      </trkpt>
      <trkpt lat="44.91927" lon="4.66864">
        <ele>812.93</ele>
        <time>2024-05-09T10:02:05Z</time>
      </trkpt>
      <trkpt lat="44.91899" lon="4.66885">
        <ele>814.85</ele>
        <time>2024-05-09T10:02:22Z</time>
      </trkpt>
      <trkpt lat="44.91882" lon="4.66896">
        <ele>812.45</ele>
        <time>2024-05-09T10:02:37Z</time>
      </trkpt>
      <trkpt lat="44.91849" lon="4.66918">
        <ele>809.57</ele>
        <time>2024-05-09T10:02:59Z</time>
      </trkpt>
      <trkpt lat="44.91823" lon="4.66934">
        <ele>811.01</ele>
        <time>2024-05-09T10:03:17Z</time>
      </trkpt>
      <trkpt lat="44.91801" lon="4.66937">
        <ele>811.49</ele>
        <time>2024-05-09T10:03:33Z</time>
      </trkpt>
      <trkpt lat="44.91791" lon="4.66943">
        <ele>811.49</ele>
        <time>2024-05-09T10:03:41Z</time>
      </trkpt>
      <trkpt lat="44.91786" lon="4.66965">
        <ele>810.05</ele>
        <time>2024-05-09T10:03:54Z</time>
      </trkpt>
      <trkpt lat="44.918" lon="4.66988">
        <ele>805.24</ele>
        <time>2024-05-09T10:04:11Z</time>
      </trkpt>
      <trkpt lat="44.9181" lon="4.67003">
        <ele>802.84</ele>
        <time>2024-05-09T10:04:23Z</time>
      </trkpt>
      <trkpt lat="44.91832" lon="4.67036">
        <ele>798.99</ele>
        <time>2024-05-09T10:04:41Z</time>
      </trkpt>
      <trkpt lat="44.91847" lon="4.67057">
        <ele>798.99</ele>
        <time>2024-05-09T10:04:55Z</time>
      </trkpt>
      <trkpt lat="44.9187" lon="4.67085">
        <ele>796.59</ele>
        <time>2024-05-09T10:05:12Z</time>
      </trkpt>
      <trkpt lat="44.91883" lon="4.67108">
        <ele>796.11</ele>
        <time>2024-05-09T10:05:26Z</time>
      </trkpt>
      <trkpt lat="44.91905" lon="4.67138">
        <ele>800.44</ele>
        <time>2024-05-09T10:05:47Z</time>
      </trkpt>
      <trkpt lat="44.91927" lon="4.67164">
        <ele>798.51</ele>
        <time>2024-05-09T10:06:06Z</time>
      </trkpt>
      <trkpt lat="44.91943" lon="4.67182">
        <ele>793.71</ele>
        <time>2024-05-09T10:06:28Z</time>
      </trkpt>
      <trkpt lat="44.91962" lon="4.6722">
        <ele>789.86</ele>
        <time>2024-05-09T10:06:46Z</time>
      </trkpt>
      <trkpt lat="44.91969" lon="4.67255">
        <ele>787.46</ele>
        <time>2024-05-09T10:07:03Z</time>
      </trkpt>
      <trkpt lat="44.91978" lon="4.67296">
        <ele>789.86</ele>
        <time>2024-05-09T10:07:20Z</time>
      </trkpt>
      <trkpt lat="44.91978" lon="4.67299">
        <ele>789.86</ele>
        <time>2024-05-09T10:07:22Z</time>
      </trkpt>
      <trkpt lat="44.9198" lon="4.67323">
        <ele>788.9</ele>
        <time>2024-05-09T10:07:39Z</time>
      </trkpt>
      <trkpt lat="44.91983" lon="4.6734">
        <ele>785.53</ele>
        <time>2024-05-09T10:08:06Z</time>
      </trkpt>
      <trkpt lat="44.91993" lon="4.67392">
        <ele>786.5</ele>
        <time>2024-05-09T10:08:29Z</time>
      </trkpt>
      <trkpt lat="44.92001" lon="4.67416">
        <ele>791.78</ele>
        <time>2024-05-09T10:08:44Z</time>
      </trkpt>
      <trkpt lat="44.92014" lon="4.67431">
        <ele>794.19</ele>
        <time>2024-05-09T10:08:55Z</time>
      </trkpt>
      <trkpt lat="44.92032" lon="4.67453">
        <ele>792.74</ele>
        <time>2024-05-09T10:09:11Z</time>
      </trkpt>
      <trkpt lat="44.92045" lon="4.67463">
        <ele>791.3</ele>
        <time>2024-05-09T10:09:25Z</time>
      </trkpt>
      <trkpt lat="44.92064" lon="4.67477">
        <ele>788.9</ele>
        <time>2024-05-09T10:09:40Z</time>
      </trkpt>
      <trkpt lat="44.92065" lon="4.67489">
        <ele>788.42</ele>
        <time>2024-05-09T10:09:45Z</time>
      </trkpt>
      <trkpt lat="44.9206" lon="4.67524">
        <ele>789.86</ele>
        <time>2024-05-09T10:10:03Z</time>
      </trkpt>
      <trkpt lat="44.9206" lon="4.6756">
        <ele>792.26</ele>
        <time>2024-05-09T10:10:19Z</time>
      </trkpt>
      <trkpt lat="44.92057" lon="4.67605">
        <ele>792.26</ele>
        <time>2024-05-09T10:10:40Z</time>
      </trkpt>
      <trkpt lat="44.92056" lon="4.67643">
        <ele>791.78</ele>
        <time>2024-05-09T10:10:59Z</time>
      </trkpt>
      <trkpt lat="44.92054" lon="4.67679">
        <ele>786.98</ele>
        <time>2024-05-09T10:11:14Z</time>
      </trkpt>
      <trkpt lat="44.92052" lon="4.67699">
        <ele>786.02</ele>
        <time>2024-05-09T10:11:24Z</time>
      </trkpt>
      <trkpt lat="44.9205" lon="4.6772">
        <ele>786.02</ele>
        <time>2024-05-09T10:11:32Z</time>
      </trkpt>
      <trkpt lat="44.92045" lon="4.67752">
        <ele>784.57</ele>
        <time>2024-05-09T10:11:47Z</time>
      </trkpt>
      <trkpt lat="44.92043" lon="4.67782">
        <ele>780.25</ele>
        <time>2024-05-09T10:12:03Z</time>
      </trkpt>
      <trkpt lat="44.92045" lon="4.67816">
        <ele>775.92</ele>
        <time>2024-05-09T10:12:17Z</time>
      </trkpt>
      <trkpt lat="44.92045" lon="4.67817">
        <ele>775.92</ele>
        <time>2024-05-09T10:12:18Z</time>
      </trkpt>
      <trkpt lat="44.92042" lon="4.67823">
        <ele>775.44</ele>
        <time>2024-05-09T10:12:22Z</time>
      </trkpt>
      <trkpt lat="44.92032" lon="4.67828">
        <ele>776.4</ele>
        <time>2024-05-09T10:12:35Z</time>
      </trkpt>
      <trkpt lat="44.92026" lon="4.67819">
        <ele>779.29</ele>
        <time>2024-05-09T10:12:44Z</time>
      </trkpt>
      <trkpt lat="44.92009" lon="4.67803">
        <ele>778.81</ele>
        <time>2024-05-09T10:13:01Z</time>
      </trkpt>
      <trkpt lat="44.92002" lon="4.6781">
        <ele>781.69</ele>
        <time>2024-05-09T10:13:29Z</time>
      </trkpt>
      <trkpt lat="44.92017" lon="4.67812">
        <ele>780.25</ele>
        <time>2024-05-09T10:13:52Z</time>
      </trkpt>
      <trkpt lat="44.92034" lon="4.67837">
        <ele>776.88</ele>
        <time>2024-05-09T10:14:11Z</time>
      </trkpt>
      <trkpt lat="44.92048" lon="4.67841">
        <ele>773.52</ele>
        <time>2024-05-09T10:14:27Z</time>
      </trkpt>
      <trkpt lat="44.92059" lon="4.67875">
        <ele>777.84</ele>
        <time>2024-05-09T10:14:48Z</time>
      </trkpt>
      <trkpt lat="44.92069" lon="4.6791">
        <ele>778.81</ele>
        <time>2024-05-09T10:15:06Z</time>
      </trkpt>
      <trkpt lat="44.9207" lon="4.67938">
        <ele>784.09</ele>
        <time>2024-05-09T10:15:19Z</time>
      </trkpt>
      <trkpt lat="44.92075" lon="4.67967">
        <ele>786.5</ele>
        <time>2024-05-09T10:15:35Z</time>
      </trkpt>
      <trkpt lat="44.92076" lon="4.68006">
        <ele>786.98</ele>
        <time>2024-05-09T10:15:54Z</time>
      </trkpt>
      <trkpt lat="44.92078" lon="4.68042">
        <ele>787.46</ele>
        <time>2024-05-09T10:16:11Z</time>
      </trkpt>
      <trkpt lat="44.92081" lon="4.6808">
        <ele>785.53</ele>
        <time>2024-05-09T10:16:29Z</time>
      </trkpt>
      <trkpt lat="44.9208" lon="4.68108">
        <ele>786.98</ele>
        <time>2024-05-09T10:16:47Z</time>
      </trkpt>
      <trkpt lat="44.92067" lon="4.68138">
        <ele>784.09</ele>
        <time>2024-05-09T10:17:03Z</time>
      </trkpt>
      <trkpt lat="44.92043" lon="4.68157">
        <ele>780.25</ele>
        <time>2024-05-09T10:17:21Z</time>
      </trkpt>
      <trkpt lat="44.9203" lon="4.6816">
        <ele>776.4</ele>
        <time>2024-05-09T10:17:43Z</time>
      </trkpt>
      <trkpt lat="44.92028" lon="4.68161">
        <ele>773.52</ele>
        <time>2024-05-09T10:18:04Z</time>
      </trkpt>
      <trkpt lat="44.92016" lon="4.68166">
        <ele>774.48</ele>
        <time>2024-05-09T10:18:20Z</time>
      </trkpt>
      <trkpt lat="44.92003" lon="4.68181">
        <ele>774</ele>
        <time>2024-05-09T10:18:35Z</time>
      </trkpt>
      <trkpt lat="44.91987" lon="4.68223">
        <ele>771.6</ele>
        <time>2024-05-09T10:18:57Z</time>
      </trkpt>
      <trkpt lat="44.91979" lon="4.68246">
        <ele>771.11</ele>
        <time>2024-05-09T10:19:14Z</time>
      </trkpt>
      <trkpt lat="44.91978" lon="4.68248">
        <ele>771.11</ele>
        <time>2024-05-09T10:19:15Z</time>
      </trkpt>
      <trkpt lat="44.91971" lon="4.6829">
        <ele>764.39</ele>
        <time>2024-05-09T10:19:33Z</time>
      </trkpt>
      <trkpt lat="44.91962" lon="4.68328">
        <ele>762.46</ele>
        <time>2024-05-09T10:19:52Z</time>
      </trkpt>
      <trkpt lat="44.91949" lon="4.68368">
        <ele>757.66</ele>
        <time>2024-05-09T10:20:14Z</time>
      </trkpt>
      <trkpt lat="44.9194" lon="4.68412">
        <ele>754.77</ele>
        <time>2024-05-09T10:20:35Z</time>
      </trkpt>
      <trkpt lat="44.91934" lon="4.68454">
        <ele>751.89</ele>
        <time>2024-05-09T10:20:54Z</time>
      </trkpt>
      <trkpt lat="44.91927" lon="4.68501">
        <ele>749</ele>
        <time>2024-05-09T10:21:16Z</time>
      </trkpt>
      <trkpt lat="44.91923" lon="4.68547">
        <ele>745.64</ele>
        <time>2024-05-09T10:21:38Z</time>
      </trkpt>
      <trkpt lat="44.91931" lon="4.68596">
        <ele>744.2</ele>
        <time>2024-05-09T10:22:01Z</time>
      </trkpt>
      <trkpt lat="44.91948" lon="4.68632">
        <ele>740.83</ele>
        <time>2024-05-09T10:22:22Z</time>
      </trkpt>
      <trkpt lat="44.91963" lon="4.6865">
        <ele>741.79</ele>
        <time>2024-05-09T10:22:32Z</time>
      </trkpt>
      <trkpt lat="44.91976" lon="4.68687">
        <ele>742.28</ele>
        <time>2024-05-09T10:22:49Z</time>
      </trkpt>
      <trkpt lat="44.91974" lon="4.68723">
        <ele>743.72</ele>
        <time>2024-05-09T10:23:05Z</time>
      </trkpt>
      <trkpt lat="44.91972" lon="4.68742">
        <ele>739.39</ele>
        <time>2024-05-09T10:23:20Z</time>
      </trkpt>
      <trkpt lat="44.91973" lon="4.6874">
        <ele>737.95</ele>
        <time>2024-05-09T10:23:32Z</time>
      </trkpt>
      <trkpt lat="44.91973" lon="4.68711">
        <ele>736.99</ele>
        <time>2024-05-09T10:23:50Z</time>
      </trkpt>
      <trkpt lat="44.91961" lon="4.68718">
        <ele>736.03</ele>
        <time>2024-05-09T10:24:11Z</time>
      </trkpt>
      <trkpt lat="44.91945" lon="4.68724">
        <ele>734.58</ele>
        <time>2024-05-09T10:24:24Z</time>
      </trkpt>
      <trkpt lat="44.91915" lon="4.68741">
        <ele>731.22</ele>
        <time>2024-05-09T10:24:44Z</time>
      </trkpt>
      <trkpt lat="44.91888" lon="4.68762">
        <ele>731.22</ele>
        <time>2024-05-09T10:25:02Z</time>
      </trkpt>
      <trkpt lat="44.91867" lon="4.68779">
        <ele>730.74</ele>
        <time>2024-05-09T10:25:17Z</time>
      </trkpt>
      <trkpt lat="44.91843" lon="4.68805">
        <ele>729.3</ele>
        <time>2024-05-09T10:25:37Z</time>
      </trkpt>
      <trkpt lat="44.91811" lon="4.68837">
        <ele>730.74</ele>
        <time>2024-05-09T10:26:00Z</time>
      </trkpt>
      <trkpt lat="44.91791" lon="4.68852">
        <ele>730.74</ele>
        <time>2024-05-09T10:26:16Z</time>
      </trkpt>
      <trkpt lat="44.91771" lon="4.68869">
        <ele>727.37</ele>
        <time>2024-05-09T10:26:32Z</time>
      </trkpt>
      <trkpt lat="44.91762" lon="4.68905">
        <ele>728.82</ele>
        <time>2024-05-09T10:26:49Z</time>
      </trkpt>
      <trkpt lat="44.91755" lon="4.68927">
        <ele>725.93</ele>
        <time>2024-05-09T10:27:02Z</time>
      </trkpt>
      <trkpt lat="44.91746" lon="4.68955">
        <ele>723.05</ele>
        <time>2024-05-09T10:27:19Z</time>
      </trkpt>
      <trkpt lat="44.91734" lon="4.68995">
        <ele>719.68</ele>
        <time>2024-05-09T10:27:37Z</time>
      </trkpt>
      <trkpt lat="44.91729" lon="4.69035">
        <ele>717.76</ele>
        <time>2024-05-09T10:27:55Z</time>
      </trkpt>
      <trkpt lat="44.91731" lon="4.69084">
        <ele>717.76</ele>
        <time>2024-05-09T10:28:15Z</time>
      </trkpt>
      <trkpt lat="44.91731" lon="4.69113">
        <ele>716.8</ele>
        <time>2024-05-09T10:28:30Z</time>
      </trkpt>
      <trkpt lat="44.91733" lon="4.69128">
        <ele>718.24</ele>
        <time>2024-05-09T10:28:45Z</time>
      </trkpt>
      <trkpt lat="44.9174" lon="4.69162">
        <ele>717.76</ele>
        <time>2024-05-09T10:29:02Z</time>
      </trkpt>
      <trkpt lat="44.91755" lon="4.69201">
        <ele>715.84</ele>
        <time>2024-05-09T10:29:19Z</time>
      </trkpt>
      <trkpt lat="44.91773" lon="4.69242">
        <ele>712.95</ele>
        <time>2024-05-09T10:29:42Z</time>
      </trkpt>
      <trkpt lat="44.91793" lon="4.69289">
        <ele>713.92</ele>
        <time>2024-05-09T10:30:07Z</time>
      </trkpt>
      <trkpt lat="44.91811" lon="4.69327">
        <ele>711.99</ele>
        <time>2024-05-09T10:30:27Z</time>
      </trkpt>
      <trkpt lat="44.91824" lon="4.69354">
        <ele>710.55</ele>
        <time>2024-05-09T10:30:45Z</time>
      </trkpt>
      <trkpt lat="44.9184" lon="4.69389">
        <ele>707.67</ele>
        <time>2024-05-09T10:31:04Z</time>
      </trkpt>
      <trkpt lat="44.91854" lon="4.69422">
        <ele>706.71</ele>
        <time>2024-05-09T10:31:24Z</time>
      </trkpt>
      <trkpt lat="44.9187" lon="4.69458">
        <ele>705.75</ele>
        <time>2024-05-09T10:31:43Z</time>
      </trkpt>
      <trkpt lat="44.91885" lon="4.69504">
        <ele>701.9</ele>
        <time>2024-05-09T10:32:04Z</time>
      </trkpt>
      <trkpt lat="44.91885" lon="4.69515">
        <ele>699.5</ele>
        <time>2024-05-09T10:32:19Z</time>
      </trkpt>
      <trkpt lat="44.91889" lon="4.69524">
        <ele>698.53</ele>
        <time>2024-05-09T10:32:42Z</time>
      </trkpt>
      <trkpt lat="44.91896" lon="4.69548">
        <ele>695.65</ele>
        <time>2024-05-09T10:33:01Z</time>
      </trkpt>
      <trkpt lat="44.91904" lon="4.6959">
        <ele>692.29</ele>
        <time>2024-05-09T10:33:19Z</time>
      </trkpt>
      <trkpt lat="44.91914" lon="4.69639">
        <ele>688.92</ele>
        <time>2024-05-09T10:33:42Z</time>
      </trkpt>
      <trkpt lat="44.9192" lon="4.69684">
        <ele>690.36</ele>
        <time>2024-05-09T10:34:02Z</time>
      </trkpt>
      <trkpt lat="44.91929" lon="4.69732">
        <ele>691.33</ele>
        <time>2024-05-09T10:34:25Z</time>
      </trkpt>
      <trkpt lat="44.91939" lon="4.69781">
        <ele>690.84</ele>
        <time>2024-05-09T10:34:50Z</time>
      </trkpt>
      <trkpt lat="44.9194" lon="4.6979">
        <ele>690.84</ele>
        <time>2024-05-09T10:34:55Z</time>
      </trkpt>
      <trkpt lat="44.91941" lon="4.69828">
        <ele>690.36</ele>
        <time>2024-05-09T10:35:14Z</time>
      </trkpt>
      <trkpt lat="44.91946" lon="4.69862">
        <ele>688.44</ele>
        <time>2024-05-09T10:35:31Z</time>
      </trkpt>
      <trkpt lat="44.91947" lon="4.69879">
        <ele>686.04</ele>
        <time>2024-05-09T10:35:41Z</time>
      </trkpt>
      <trkpt lat="44.91952" lon="4.69915">
        <ele>683.63</ele>
        <time>2024-05-09T10:36:01Z</time>
      </trkpt>
      <trkpt lat="44.91954" lon="4.69945">
        <ele>682.19</ele>
        <time>2024-05-09T10:36:17Z</time>
      </trkpt>
      <trkpt lat="44.91955" lon="4.69948">
        <ele>681.71</ele>
        <time>2024-05-09T10:36:29Z</time>
      </trkpt>
      <trkpt lat="44.91959" lon="4.69935">
        <ele>681.23</ele>
        <time>2024-05-09T10:36:42Z</time>
      </trkpt>
      <trkpt lat="44.91961" lon="4.69935">
        <ele>681.23</ele>
        <time>2024-05-09T10:36:44Z</time>
      </trkpt>
      <trkpt lat="44.91974" lon="4.69964">
        <ele>680.75</ele>
        <time>2024-05-09T10:37:02Z</time>
      </trkpt>
      <trkpt lat="44.9199" lon="4.70001">
        <ele>681.23</ele>
        <time>2024-05-09T10:37:21Z</time>
      </trkpt>
      <trkpt lat="44.92011" lon="4.70039">
        <ele>684.12</ele>
        <time>2024-05-09T10:37:45Z</time>
      </trkpt>
      <trkpt lat="44.92029" lon="4.70069">
        <ele>687.96</ele>
        <time>2024-05-09T10:38:02Z</time>
      </trkpt>
      <trkpt lat="44.92045" lon="4.70108">
        <ele>690.84</ele>
        <time>2024-05-09T10:38:23Z</time>
      </trkpt>
      <trkpt lat="44.92054" lon="4.70159">
        <ele>692.29</ele>
        <time>2024-05-09T10:38:45Z</time>
      </trkpt>
      <trkpt lat="44.92061" lon="4.70192">
        <ele>693.73</ele>
        <time>2024-05-09T10:39:07Z</time>
      </trkpt>
      <trkpt lat="44.92065" lon="4.70194">
        <ele>694.21</ele>
        <time>2024-05-09T10:39:13Z</time>
      </trkpt>
      <trkpt lat="44.92084" lon="4.70219">
        <ele>689.88</ele>
        <time>2024-05-09T10:39:30Z</time>
      </trkpt>
      <trkpt lat="44.92102" lon="4.70252">
        <ele>685.08</ele>
        <time>2024-05-09T10:39:51Z</time>
      </trkpt>
      <trkpt lat="44.92114" lon="4.70287">
        <ele>681.71</ele>
        <time>2024-05-09T10:40:12Z</time>
      </trkpt>
      <trkpt lat="44.92118" lon="4.70305">
        <ele>681.71</ele>
        <time>2024-05-09T10:40:29Z</time>
      </trkpt>
      <trkpt lat="44.92117" lon="4.70309">
        <ele>684.6</ele>
        <time>2024-05-09T10:40:56Z</time>
      </trkpt>
      <trkpt lat="44.92118" lon="4.70311">
        <ele>684.12</ele>
        <time>2024-05-09T10:41:15Z</time>
      </trkpt>
      <trkpt lat="44.92117" lon="4.703">
        <ele>684.12</ele>
        <time>2024-05-09T10:41:35Z</time>
      </trkpt>
      <trkpt lat="44.92118" lon="4.70299">
        <ele>685.56</ele>
        <time>2024-05-09T10:41:48Z</time>
      </trkpt>
      <trkpt lat="44.921" lon="4.70325">
        <ele>756.69</ele>
        <time>2024-05-09T12:32:54Z</time>
      </trkpt>
      <trkpt lat="44.92109" lon="4.703">
        <ele>704.78</ele>
        <time>2024-05-09T12:33:14Z</time>
      </trkpt>
      <trkpt lat="44.92112" lon="4.70291">
        <ele>696.61</ele>
        <time>2024-05-09T12:33:35Z</time>
      </trkpt>
      <trkpt lat="44.92115" lon="4.7029">
        <ele>688.92</ele>
        <time>2024-05-09T12:34:03Z</time>
      </trkpt>
      <trkpt lat="44.92117" lon="4.7029">
        <ele>692.29</ele>
        <time>2024-05-09T12:34:28Z</time>
      </trkpt>
      <trkpt lat="44.92115" lon="4.70289">
        <ele>690.36</ele>
        <time>2024-05-09T12:34:47Z</time>
      </trkpt>
      <trkpt lat="44.92114" lon="4.70287">
        <ele>689.4</ele>
        <time>2024-05-09T12:35:12Z</time>
      </trkpt>
      <trkpt lat="44.92112" lon="4.70288">
        <ele>685.56</ele>
        <time>2024-05-09T12:35:42Z</time>
      </trkpt>
      <trkpt lat="44.92111" lon="4.70289">
        <ele>685.08</ele>
        <time>2024-05-09T12:36:11Z</time>
      </trkpt>
      <trkpt lat="44.92112" lon="4.70288">
        <ele>684.12</ele>
        <time>2024-05-09T12:36:36Z</time>
      </trkpt>
      <trkpt lat="44.92113" lon="4.70287">
        <ele>682.67</ele>
        <time>2024-05-09T12:37:03Z</time>
      </trkpt>
      <trkpt lat="44.92114" lon="4.70292">
        <ele>682.67</ele>
        <time>2024-05-09T12:37:24Z</time>
      </trkpt>
      <trkpt lat="44.92115" lon="4.70295">
        <ele>684.12</ele>
        <time>2024-05-09T12:37:48Z</time>
      </trkpt>
      <trkpt lat="44.92119" lon="4.703">
        <ele>683.15</ele>
        <time>2024-05-09T12:38:11Z</time>
      </trkpt>
      <trkpt lat="44.9212" lon="4.703">
        <ele>682.67</ele>
        <time>2024-05-09T12:38:35Z</time>
      </trkpt>
      <trkpt lat="44.92116" lon="4.70298">
        <ele>682.19</ele>
        <time>2024-05-09T12:39:07Z</time>
      </trkpt>
      <trkpt lat="44.92117" lon="4.70296">
        <ele>680.27</ele>
        <time>2024-05-09T12:39:35Z</time>
      </trkpt>
      <trkpt lat="44.92118" lon="4.70295">
        <ele>680.75</ele>
        <time>2024-05-09T12:40:03Z</time>
      </trkpt>
      <trkpt lat="44.92117" lon="4.70294">
        <ele>682.67</ele>
        <time>2024-05-09T12:40:29Z</time>
      </trkpt>
      <trkpt lat="44.92115" lon="4.703">
        <ele>682.19</ele>
        <time>2024-05-09T12:40:53Z</time>
      </trkpt>
      <trkpt lat="44.92116" lon="4.70318">
        <ele>682.19</ele>
        <time>2024-05-09T12:41:11Z</time>
      </trkpt>
      <trkpt lat="44.92119" lon="4.70321">
        <ele>681.71</ele>
        <time>2024-05-09T12:41:29Z</time>
      </trkpt>
      <trkpt lat="44.92127" lon="4.70323">
        <ele>680.75</ele>
        <time>2024-05-09T12:41:55Z</time>
      </trkpt>
      <trkpt lat="44.92135" lon="4.70322">
        <ele>675.94</ele>
        <time>2024-05-09T12:42:17Z</time>
      </trkpt>
      <trkpt lat="44.92151" lon="4.70317">
        <ele>671.62</ele>
        <time>2024-05-09T12:42:39Z</time>
      </trkpt>
      <trkpt lat="44.92155" lon="4.70318">
        <ele>672.1</ele>
        <time>2024-05-09T12:42:55Z</time>
      </trkpt>
      <trkpt lat="44.92156" lon="4.70316">
        <ele>669.22</ele>
        <time>2024-05-09T12:43:15Z</time>
      </trkpt>
      <trkpt lat="44.92152" lon="4.70319">
        <ele>667.29</ele>
        <time>2024-05-09T12:43:38Z</time>
      </trkpt>
      <trkpt lat="44.92152" lon="4.7032">
        <ele>668.73</ele>
        <time>2024-05-09T12:43:56Z</time>
      </trkpt>
      <trkpt lat="44.92151" lon="4.70317">
        <ele>668.73</ele>
        <time>2024-05-09T12:44:13Z</time>
      </trkpt>
      <trkpt lat="44.92157" lon="4.70317">
        <ele>668.73</ele>
        <time>2024-05-09T12:44:29Z</time>
      </trkpt>
      <trkpt lat="44.92158" lon="4.70326">
        <ele>668.25</ele>
        <time>2024-05-09T12:44:48Z</time>
      </trkpt>
      <trkpt lat="44.92159" lon="4.70331">
        <ele>667.29</ele>
        <time>2024-05-09T12:44:53Z</time>
      </trkpt>
      <trkpt lat="44.92159" lon="4.70339">
        <ele>665.37</ele>
        <time>2024-05-09T12:45:11Z</time>
      </trkpt>
      <trkpt lat="44.92161" lon="4.70349">
        <ele>666.81</ele>
        <time>2024-05-09T12:45:24Z</time>
      </trkpt>
      <trkpt lat="44.92159" lon="4.70356">
        <ele>667.29</ele>
        <time>2024-05-09T12:45:28Z</time>
      </trkpt>
      <trkpt lat="44.92155" lon="4.70367">
        <ele>666.81</ele>
        <time>2024-05-09T12:45:36Z</time>
      </trkpt>
      <trkpt lat="44.92161" lon="4.7037">
        <ele>666.81</ele>
        <time>2024-05-09T12:45:41Z</time>
      </trkpt>
      <trkpt lat="44.92162" lon="4.70371">
        <ele>666.81</ele>
        <time>2024-05-09T12:45:43Z</time>
      </trkpt>
      <trkpt lat="44.92158" lon="4.70389">
        <ele>666.81</ele>
        <time>2024-05-09T12:45:53Z</time>
      </trkpt>
      <trkpt lat="44.92159" lon="4.70407">
        <ele>662.97</ele>
        <time>2024-05-09T12:46:07Z</time>
      </trkpt>
      <trkpt lat="44.92157" lon="4.70407">
        <ele>658.16</ele>
        <time>2024-05-09T12:46:36Z</time>
      </trkpt>
      <trkpt lat="44.92159" lon="4.70392">
        <ele>653.83</ele>
        <time>2024-05-09T12:47:03Z</time>
      </trkpt>
      <trkpt lat="44.92154" lon="4.7041">
        <ele>658.16</ele>
        <time>2024-05-09T12:47:32Z</time>
      </trkpt>
      <trkpt lat="44.92156" lon="4.70423">
        <ele>657.68</ele>
        <time>2024-05-09T12:47:50Z</time>
      </trkpt>
      <trkpt lat="44.92161" lon="4.70425">
        <ele>657.2</ele>
        <time>2024-05-09T12:47:54Z</time>
      </trkpt>
      <trkpt lat="44.92179" lon="4.70423">
        <ele>653.83</ele>
        <time>2024-05-09T12:48:13Z</time>
      </trkpt>
      <trkpt lat="44.92197" lon="4.70429">
        <ele>649.03</ele>
        <time>2024-05-09T12:48:29Z</time>
      </trkpt>
      <trkpt lat="44.92216" lon="4.70435">
        <ele>647.59</ele>
        <time>2024-05-09T12:48:46Z</time>
      </trkpt>
      <trkpt lat="44.92232" lon="4.70443">
        <ele>647.1</ele>
        <time>2024-05-09T12:49:03Z</time>
      </trkpt>
      <trkpt lat="44.92254" lon="4.70451">
        <ele>647.1</ele>
        <time>2024-05-09T12:49:18Z</time>
      </trkpt>
      <trkpt lat="44.92287" lon="4.70462">
        <ele>647.1</ele>
        <time>2024-05-09T12:49:34Z</time>
      </trkpt>
      <trkpt lat="44.92309" lon="4.70481">
        <ele>647.1</ele>
        <time>2024-05-09T12:49:52Z</time>
      </trkpt>
      <trkpt lat="44.92334" lon="4.70502">
        <ele>647.1</ele>
        <time>2024-05-09T12:50:12Z</time>
      </trkpt>
      <trkpt lat="44.9234" lon="4.705">
        <ele>647.1</ele>
        <time>2024-05-09T12:50:24Z</time>
      </trkpt>
      <trkpt lat="44.9231" lon="4.70479">
        <ele>645.18</ele>
        <time>2024-05-09T12:50:48Z</time>
      </trkpt>
      <trkpt lat="44.92285" lon="4.70463">
        <ele>647.59</ele>
        <time>2024-05-09T12:51:01Z</time>
      </trkpt>
      <trkpt lat="44.9228" lon="4.70468">
        <ele>647.59</ele>
        <time>2024-05-09T12:51:05Z</time>
      </trkpt>
      <trkpt lat="44.9227" lon="4.70486">
        <ele>646.62</ele>
        <time>2024-05-09T12:51:19Z</time>
      </trkpt>
      <trkpt lat="44.92261" lon="4.70514">
        <ele>641.34</ele>
        <time>2024-05-09T12:51:36Z</time>
      </trkpt>
      <trkpt lat="44.92262" lon="4.70519">
        <ele>640.38</ele>
        <time>2024-05-09T12:51:39Z</time>
      </trkpt>
      <trkpt lat="44.92266" lon="4.70524">
        <ele>640.86</ele>
        <time>2024-05-09T12:51:42Z</time>
      </trkpt>
      <trkpt lat="44.92269" lon="4.70527">
        <ele>641.34</ele>
        <time>2024-05-09T12:51:44Z</time>
      </trkpt>
      <trkpt lat="44.92276" lon="4.7055">
        <ele>642.78</ele>
        <time>2024-05-09T12:51:58Z</time>
      </trkpt>
      <trkpt lat="44.9228" lon="4.70573">
        <ele>643.26</ele>
        <time>2024-05-09T12:52:10Z</time>
      </trkpt>
      <trkpt lat="44.92281" lon="4.70599">
        <ele>644.22</ele>
        <time>2024-05-09T12:52:22Z</time>
      </trkpt>
      <trkpt lat="44.9228" lon="4.70631">
        <ele>641.82</ele>
        <time>2024-05-09T12:52:37Z</time>
      </trkpt>
      <trkpt lat="44.92274" lon="4.70659">
        <ele>640.86</ele>
        <time>2024-05-09T12:52:50Z</time>
      </trkpt>
      <trkpt lat="44.92263" lon="4.70687">
        <ele>639.41</ele>
        <time>2024-05-09T12:53:06Z</time>
      </trkpt>
      <trkpt lat="44.92253" lon="4.70709">
        <ele>636.53</ele>
        <time>2024-05-09T12:53:20Z</time>
      </trkpt>
      <trkpt lat="44.92251" lon="4.70719">
        <ele>636.53</ele>
        <time>2024-05-09T12:53:24Z</time>
      </trkpt>
      <trkpt lat="44.92237" lon="4.70756">
        <ele>631.72</ele>
        <time>2024-05-09T12:53:44Z</time>
      </trkpt>
      <trkpt lat="44.92227" lon="4.7078">
        <ele>631.72</ele>
        <time>2024-05-09T12:53:57Z</time>
      </trkpt>
      <trkpt lat="44.92226" lon="4.70818">
        <ele>628.36</ele>
        <time>2024-05-09T12:54:13Z</time>
      </trkpt>
      <trkpt lat="44.92228" lon="4.70841">
        <ele>624.51</ele>
        <time>2024-05-09T12:54:26Z</time>
      </trkpt>
      <trkpt lat="44.92232" lon="4.70862">
        <ele>628.36</ele>
        <time>2024-05-09T12:54:36Z</time>
      </trkpt>
      <trkpt lat="44.92235" lon="4.7087">
        <ele>628.36</ele>
        <time>2024-05-09T12:54:40Z</time>
      </trkpt>
      <trkpt lat="44.92246" lon="4.70896">
        <ele>625.47</ele>
        <time>2024-05-09T12:54:55Z</time>
      </trkpt>
      <trkpt lat="44.92269" lon="4.70914">
        <ele>619.71</ele>
        <time>2024-05-09T12:55:13Z</time>
      </trkpt>
      <trkpt lat="44.92285" lon="4.70928">
        <ele>613.46</ele>
        <time>2024-05-09T12:55:28Z</time>
      </trkpt>
      <trkpt lat="44.92295" lon="4.70936">
        <ele>603.85</ele>
        <time>2024-05-09T12:55:43Z</time>
      </trkpt>
      <trkpt lat="44.92315" lon="4.70941">
        <ele>597.6</ele>
        <time>2024-05-09T12:55:59Z</time>
      </trkpt>
      <trkpt lat="44.9234" lon="4.70944">
        <ele>596.15</ele>
        <time>2024-05-09T12:56:16Z</time>
      </trkpt>
      <trkpt lat="44.92373" lon="4.7093">
        <ele>600.96</ele>
        <time>2024-05-09T12:56:36Z</time>
      </trkpt>
      <trkpt lat="44.92391" lon="4.70916">
        <ele>605.29</ele>
        <time>2024-05-09T12:56:52Z</time>
      </trkpt>
      <trkpt lat="44.92409" lon="4.70898">
        <ele>610.57</ele>
        <time>2024-05-09T12:57:08Z</time>
      </trkpt>
      <trkpt lat="44.9243" lon="4.70872">
        <ele>611.06</ele>
        <time>2024-05-09T12:57:25Z</time>
      </trkpt>
      <trkpt lat="44.9244" lon="4.70878">
        <ele>608.17</ele>
        <time>2024-05-09T12:57:40Z</time>
      </trkpt>
      <trkpt lat="44.92448" lon="4.70897">
        <ele>605.29</ele>
        <time>2024-05-09T12:57:51Z</time>
      </trkpt>
      <trkpt lat="44.92455" lon="4.70914">
        <ele>600.48</ele>
        <time>2024-05-09T12:58:04Z</time>
      </trkpt>
      <trkpt lat="44.92475" lon="4.70945">
        <ele>601.92</ele>
        <time>2024-05-09T12:58:17Z</time>
      </trkpt>
      <trkpt lat="44.92483" lon="4.70933">
        <ele>601.92</ele>
        <time>2024-05-09T12:58:29Z</time>
      </trkpt>
      <trkpt lat="44.92494" lon="4.70894">
        <ele>601.44</ele>
        <time>2024-05-09T12:58:47Z</time>
      </trkpt>
      <trkpt lat="44.92503" lon="4.70852">
        <ele>603.36</ele>
        <time>2024-05-09T12:59:07Z</time>
      </trkpt>
      <trkpt lat="44.92507" lon="4.70813">
        <ele>605.29</ele>
        <time>2024-05-09T12:59:25Z</time>
      </trkpt>
      <trkpt lat="44.92511" lon="4.70799">
        <ele>607.69</ele>
        <time>2024-05-09T12:59:32Z</time>
      </trkpt>
      <trkpt lat="44.92521" lon="4.70769">
        <ele>614.42</ele>
        <time>2024-05-09T12:59:49Z</time>
      </trkpt>
      <trkpt lat="44.92539" lon="4.70747">
        <ele>606.25</ele>
        <time>2024-05-09T13:00:07Z</time>
      </trkpt>
      <trkpt lat="44.92566" lon="4.70747">
        <ele>602.88</ele>
        <time>2024-05-09T13:00:23Z</time>
      </trkpt>
      <trkpt lat="44.92589" lon="4.70763">
        <ele>600.48</ele>
        <time>2024-05-09T13:00:39Z</time>
      </trkpt>
      <trkpt lat="44.92597" lon="4.7077">
        <ele>600.48</ele>
        <time>2024-05-09T13:00:45Z</time>
      </trkpt>
      <trkpt lat="44.92622" lon="4.70792">
        <ele>603.36</ele>
        <time>2024-05-09T13:01:02Z</time>
      </trkpt>
      <trkpt lat="44.92649" lon="4.70809">
        <ele>602.88</ele>
        <time>2024-05-09T13:01:22Z</time>
      </trkpt>
      <trkpt lat="44.92679" lon="4.70817">
        <ele>601.92</ele>
        <time>2024-05-09T13:01:35Z</time>
      </trkpt>
      <trkpt lat="44.92704" lon="4.70824">
        <ele>600.96</ele>
        <time>2024-05-09T13:01:52Z</time>
      </trkpt>
      <trkpt lat="44.92734" lon="4.70832">
        <ele>598.56</ele>
        <time>2024-05-09T13:02:09Z</time>
      </trkpt>
      <trkpt lat="44.92757" lon="4.70842">
        <ele>598.08</ele>
        <time>2024-05-09T13:02:22Z</time>
      </trkpt>
      <trkpt lat="44.92784" lon="4.70861">
        <ele>598.08</ele>
        <time>2024-05-09T13:02:38Z</time>
      </trkpt>
      <trkpt lat="44.92795" lon="4.70871">
        <ele>599.04</ele>
        <time>2024-05-09T13:02:48Z</time>
      </trkpt>
      <trkpt lat="44.92796" lon="4.70873">
        <ele>598.56</ele>
        <time>2024-05-09T13:02:49Z</time>
      </trkpt>
      <trkpt lat="44.92797" lon="4.70874">
        <ele>598.56</ele>
        <time>2024-05-09T13:02:50Z</time>
      </trkpt>
      <trkpt lat="44.92797" lon="4.70876">
        <ele>598.56</ele>
        <time>2024-05-09T13:02:51Z</time>
      </trkpt>
      <trkpt lat="44.92798" lon="4.70877">
        <ele>598.56</ele>
        <time>2024-05-09T13:02:52Z</time>
      </trkpt>
      <trkpt lat="44.92814" lon="4.70899">
        <ele>598.08</ele>
        <time>2024-05-09T13:03:07Z</time>
      </trkpt>
      <trkpt lat="44.92829" lon="4.70934">
        <ele>597.12</ele>
        <time>2024-05-09T13:03:24Z</time>
      </trkpt>
      <trkpt lat="44.9284" lon="4.70964">
        <ele>596.64</ele>
        <time>2024-05-09T13:03:40Z</time>
      </trkpt>
      <trkpt lat="44.92839" lon="4.70986">
        <ele>595.19</ele>
        <time>2024-05-09T13:03:54Z</time>
      </trkpt>
      <trkpt lat="44.92839" lon="4.71024">
        <ele>592.79</ele>
        <time>2024-05-09T13:04:11Z</time>
      </trkpt>
      <trkpt lat="44.9284" lon="4.71059">
        <ele>589.91</ele>
        <time>2024-05-09T13:04:27Z</time>
      </trkpt>
      <trkpt lat="44.92849" lon="4.71095">
        <ele>587.98</ele>
        <time>2024-05-09T13:04:47Z</time>
      </trkpt>
      <trkpt lat="44.9285" lon="4.71098">
        <ele>586.54</ele>
        <time>2024-05-09T13:05:01Z</time>
      </trkpt>
      <trkpt lat="44.92852" lon="4.71098">
        <ele>586.54</ele>
        <time>2024-05-09T13:05:18Z</time>
      </trkpt>
      <trkpt lat="44.9285" lon="4.71098">
        <ele>587.02</ele>
        <time>2024-05-09T13:05:30Z</time>
      </trkpt>
      <trkpt lat="44.9285" lon="4.71096">
        <ele>587.02</ele>
        <time>2024-05-09T13:05:31Z</time>
      </trkpt>
      <trkpt lat="44.92843" lon="4.71089">
        <ele>586.54</ele>
        <time>2024-05-09T13:05:39Z</time>
      </trkpt>
      <trkpt lat="44.92841" lon="4.7109">
        <ele>586.54</ele>
        <time>2024-05-09T13:05:41Z</time>
      </trkpt>
      <trkpt lat="44.9284" lon="4.71091">
        <ele>586.54</ele>
        <time>2024-05-09T13:05:42Z</time>
      </trkpt>
      <trkpt lat="44.9284" lon="4.71093">
        <ele>586.54</ele>
        <time>2024-05-09T13:05:43Z</time>
      </trkpt>
      <trkpt lat="44.92839" lon="4.711">
        <ele>586.54</ele>
        <time>2024-05-09T13:05:47Z</time>
      </trkpt>
      <trkpt lat="44.92839" lon="4.71102">
        <ele>586.06</ele>
        <time>2024-05-09T13:05:48Z</time>
      </trkpt>
      <trkpt lat="44.9284" lon="4.71104">
        <ele>586.06</ele>
        <time>2024-05-09T13:05:49Z</time>
      </trkpt>
      <trkpt lat="44.9284" lon="4.71106">
        <ele>585.58</ele>
        <time>2024-05-09T13:05:50Z</time>
      </trkpt>
      <trkpt lat="44.9284" lon="4.71108">
        <ele>585.58</ele>
        <time>2024-05-09T13:05:51Z</time>
      </trkpt>
      <trkpt lat="44.92851" lon="4.71147">
        <ele>583.18</ele>
        <time>2024-05-09T13:06:12Z</time>
      </trkpt>
      <trkpt lat="44.9287" lon="4.7119">
        <ele>578.85</ele>
        <time>2024-05-09T13:06:34Z</time>
      </trkpt>
      <trkpt lat="44.92889" lon="4.71222">
        <ele>575.97</ele>
        <time>2024-05-09T13:06:52Z</time>
      </trkpt>
      <trkpt lat="44.92909" lon="4.71241">
        <ele>574.53</ele>
        <time>2024-05-09T13:07:10Z</time>
      </trkpt>
      <trkpt lat="44.92931" lon="4.71263">
        <ele>569.24</ele>
        <time>2024-05-09T13:07:28Z</time>
      </trkpt>
      <trkpt lat="44.92954" lon="4.71288">
        <ele>562.51</ele>
        <time>2024-05-09T13:07:49Z</time>
      </trkpt>
      <trkpt lat="44.92975" lon="4.71314">
        <ele>558.18</ele>
        <time>2024-05-09T13:08:06Z</time>
      </trkpt>
      <trkpt lat="44.92994" lon="4.71342">
        <ele>560.59</ele>
        <time>2024-05-09T13:08:23Z</time>
      </trkpt>
      <trkpt lat="44.93017" lon="4.71362">
        <ele>556.26</ele>
        <time>2024-05-09T13:08:39Z</time>
      </trkpt>
      <trkpt lat="44.93028" lon="4.71388">
        <ele>550.97</ele>
        <time>2024-05-09T13:08:54Z</time>
      </trkpt>
      <trkpt lat="44.93028" lon="4.71394">
        <ele>550.01</ele>
        <time>2024-05-09T13:08:57Z</time>
      </trkpt>
      <trkpt lat="44.93021" lon="4.7144">
        <ele>547.61</ele>
        <time>2024-05-09T13:09:18Z</time>
      </trkpt>
      <trkpt lat="44.93005" lon="4.71451">
        <ele>546.17</ele>
        <time>2024-05-09T13:09:32Z</time>
      </trkpt>
      <trkpt lat="44.92991" lon="4.71453">
        <ele>546.65</ele>
        <time>2024-05-09T13:09:50Z</time>
      </trkpt>
      <trkpt lat="44.92981" lon="4.71451">
        <ele>548.09</ele>
        <time>2024-05-09T13:10:08Z</time>
      </trkpt>
      <trkpt lat="44.92973" lon="4.71459">
        <ele>548.57</ele>
        <time>2024-05-09T13:10:28Z</time>
      </trkpt>
      <trkpt lat="44.92962" lon="4.71472">
        <ele>550.49</ele>
        <time>2024-05-09T13:10:43Z</time>
      </trkpt>
      <trkpt lat="44.92961" lon="4.71474">
        <ele>550.49</ele>
        <time>2024-05-09T13:10:44Z</time>
      </trkpt>
      <trkpt lat="44.9296" lon="4.71476">
        <ele>550.97</ele>
        <time>2024-05-09T13:10:45Z</time>
      </trkpt>
      <trkpt lat="44.92943" lon="4.71494">
        <ele>550.97</ele>
        <time>2024-05-09T13:11:01Z</time>
      </trkpt>
      <trkpt lat="44.92926" lon="4.71521">
        <ele>553.86</ele>
        <time>2024-05-09T13:11:18Z</time>
      </trkpt>
      <trkpt lat="44.92903" lon="4.71552">
        <ele>555.78</ele>
        <time>2024-05-09T13:11:38Z</time>
      </trkpt>
      <trkpt lat="44.92899" lon="4.71565">
        <ele>557.22</ele>
        <time>2024-05-09T13:11:44Z</time>
      </trkpt>
      <trkpt lat="44.92899" lon="4.71567">
        <ele>558.18</ele>
        <time>2024-05-09T13:11:45Z</time>
      </trkpt>
      <trkpt lat="44.92907" lon="4.71584">
        <ele>559.62</ele>
        <time>2024-05-09T13:11:59Z</time>
      </trkpt>
      <trkpt lat="44.92912" lon="4.71591">
        <ele>559.62</ele>
        <time>2024-05-09T13:12:03Z</time>
      </trkpt>
      <trkpt lat="44.92914" lon="4.71593">
        <ele>559.62</ele>
        <time>2024-05-09T13:12:04Z</time>
      </trkpt>
      <trkpt lat="44.92936" lon="4.71612">
        <ele>562.03</ele>
        <time>2024-05-09T13:12:20Z</time>
      </trkpt>
      <trkpt lat="44.92942" lon="4.71616">
        <ele>564.43</ele>
        <time>2024-05-09T13:12:24Z</time>
      </trkpt>
      <trkpt lat="44.92961" lon="4.71633">
        <ele>568.28</ele>
        <time>2024-05-09T13:12:41Z</time>
      </trkpt>
      <trkpt lat="44.92982" lon="4.71651">
        <ele>568.28</ele>
        <time>2024-05-09T13:12:55Z</time>
      </trkpt>
      <trkpt lat="44.93004" lon="4.71671">
        <ele>568.28</ele>
        <time>2024-05-09T13:13:13Z</time>
      </trkpt>
      <trkpt lat="44.93022" lon="4.7169">
        <ele>570.68</ele>
        <time>2024-05-09T13:13:27Z</time>
      </trkpt>
      <trkpt lat="44.93037" lon="4.71708">
        <ele>569.72</ele>
        <time>2024-05-09T13:13:42Z</time>
      </trkpt>
      <trkpt lat="44.93038" lon="4.71712">
        <ele>568.76</ele>
        <time>2024-05-09T13:13:52Z</time>
      </trkpt>
      <trkpt lat="44.93037" lon="4.71714">
        <ele>568.76</ele>
        <time>2024-05-09T13:13:53Z</time>
      </trkpt>
      <trkpt lat="44.93036" lon="4.71715">
        <ele>568.76</ele>
        <time>2024-05-09T13:13:54Z</time>
      </trkpt>
      <trkpt lat="44.93034" lon="4.71719">
        <ele>569.24</ele>
        <time>2024-05-09T13:13:57Z</time>
      </trkpt>
      <trkpt lat="44.93034" lon="4.7172">
        <ele>569.24</ele>
        <time>2024-05-09T13:13:58Z</time>
      </trkpt>
      <trkpt lat="44.93034" lon="4.71722">
        <ele>569.24</ele>
        <time>2024-05-09T13:13:59Z</time>
      </trkpt>
      <trkpt lat="44.93035" lon="4.71749">
        <ele>568.76</ele>
        <time>2024-05-09T13:14:14Z</time>
      </trkpt>
      <trkpt lat="44.93046" lon="4.71788">
        <ele>567.8</ele>
        <time>2024-05-09T13:14:33Z</time>
      </trkpt>
      <trkpt lat="44.93059" lon="4.71813">
        <ele>567.8</ele>
        <time>2024-05-09T13:14:48Z</time>
      </trkpt>
      <trkpt lat="44.93065" lon="4.7185">
        <ele>565.39</ele>
        <time>2024-05-09T13:15:06Z</time>
      </trkpt>
      <trkpt lat="44.9306" lon="4.71891">
        <ele>564.43</ele>
        <time>2024-05-09T13:15:24Z</time>
      </trkpt>
      <trkpt lat="44.93054" lon="4.71935">
        <ele>562.99</ele>
        <time>2024-05-09T13:15:45Z</time>
      </trkpt>
      <trkpt lat="44.93042" lon="4.71961">
        <ele>560.59</ele>
        <time>2024-05-09T13:16:02Z</time>
      </trkpt>
      <trkpt lat="44.93024" lon="4.71997">
        <ele>556.74</ele>
        <time>2024-05-09T13:16:22Z</time>
      </trkpt>
      <trkpt lat="44.93013" lon="4.72022">
        <ele>555.3</ele>
        <time>2024-05-09T13:16:34Z</time>
      </trkpt>
      <trkpt lat="44.93004" lon="4.7205">
        <ele>556.26</ele>
        <time>2024-05-09T13:16:49Z</time>
      </trkpt>
      <trkpt lat="44.93005" lon="4.72089">
        <ele>551.45</ele>
        <time>2024-05-09T13:17:09Z</time>
      </trkpt>
      <trkpt lat="44.93006" lon="4.72112">
        <ele>546.17</ele>
        <time>2024-05-09T13:17:29Z</time>
      </trkpt>
      <trkpt lat="44.93014" lon="4.72124">
        <ele>545.69</ele>
        <time>2024-05-09T13:17:46Z</time>
      </trkpt>
      <trkpt lat="44.93015" lon="4.72124">
        <ele>544.24</ele>
        <time>2024-05-09T13:18:09Z</time>
      </trkpt>
      <trkpt lat="44.93014" lon="4.7212">
        <ele>543.76</ele>
        <time>2024-05-09T13:18:37Z</time>
      </trkpt>
      <trkpt lat="44.93023" lon="4.72116">
        <ele>553.38</ele>
        <time>2024-05-09T13:18:58Z</time>
      </trkpt>
      <trkpt lat="44.9302" lon="4.72116">
        <ele>559.14</ele>
        <time>2024-05-09T13:19:26Z</time>
      </trkpt>
      <trkpt lat="44.93022" lon="4.72118">
        <ele>556.74</ele>
        <time>2024-05-09T13:19:55Z</time>
      </trkpt>
      <trkpt lat="44.93022" lon="4.72135">
        <ele>556.74</ele>
        <time>2024-05-09T13:20:12Z</time>
      </trkpt>
      <trkpt lat="44.93027" lon="4.72162">
        <ele>554.34</ele>
        <time>2024-05-09T13:20:29Z</time>
      </trkpt>
      <trkpt lat="44.93003" lon="4.72187">
        <ele>559.62</ele>
        <time>2024-05-09T13:20:46Z</time>
      </trkpt>
      <trkpt lat="44.92984" lon="4.72212">
        <ele>560.59</ele>
        <time>2024-05-09T13:21:04Z</time>
      </trkpt>
      <trkpt lat="44.92983" lon="4.72215">
        <ele>561.07</ele>
        <time>2024-05-09T13:21:05Z</time>
      </trkpt>
      <trkpt lat="44.9297" lon="4.72245">
        <ele>571.16</ele>
        <time>2024-05-09T13:21:21Z</time>
      </trkpt>
      <trkpt lat="44.92966" lon="4.72276">
        <ele>573.08</ele>
        <time>2024-05-09T13:21:36Z</time>
      </trkpt>
      <trkpt lat="44.92964" lon="4.72311">
        <ele>575.49</ele>
        <time>2024-05-09T13:21:52Z</time>
      </trkpt>
      <trkpt lat="44.9295" lon="4.72353">
        <ele>575.97</ele>
        <time>2024-05-09T13:22:12Z</time>
      </trkpt>
      <trkpt lat="44.92928" lon="4.72377">
        <ele>579.33</ele>
        <time>2024-05-09T13:22:31Z</time>
      </trkpt>
      <trkpt lat="44.92926" lon="4.72413">
        <ele>582.7</ele>
        <time>2024-05-09T13:22:51Z</time>
      </trkpt>
      <trkpt lat="44.92932" lon="4.72446">
        <ele>586.54</ele>
        <time>2024-05-09T13:23:09Z</time>
      </trkpt>
      <trkpt lat="44.92944" lon="4.7245">
        <ele>587.98</ele>
        <time>2024-05-09T13:23:22Z</time>
      </trkpt>
      <trkpt lat="44.92973" lon="4.72446">
        <ele>588.46</ele>
        <time>2024-05-09T13:23:44Z</time>
      </trkpt>
      <trkpt lat="44.92998" lon="4.72441">
        <ele>586.54</ele>
        <time>2024-05-09T13:24:00Z</time>
      </trkpt>
      <trkpt lat="44.93029" lon="4.72454">
        <ele>581.25</ele>
        <time>2024-05-09T13:24:19Z</time>
      </trkpt>
      <trkpt lat="44.93027" lon="4.72457">
        <ele>580.77</ele>
        <time>2024-05-09T13:24:21Z</time>
      </trkpt>
      <trkpt lat="44.93006" lon="4.72484">
        <ele>576.93</ele>
        <time>2024-05-09T13:24:38Z</time>
      </trkpt>
      <trkpt lat="44.92987" lon="4.72518">
        <ele>572.12</ele>
        <time>2024-05-09T13:24:58Z</time>
      </trkpt>
      <trkpt lat="44.92968" lon="4.72548">
        <ele>571.64</ele>
        <time>2024-05-09T13:25:20Z</time>
      </trkpt>
      <trkpt lat="44.92945" lon="4.72566">
        <ele>569.72</ele>
        <time>2024-05-09T13:25:37Z</time>
      </trkpt>
      <trkpt lat="44.92944" lon="4.72567">
        <ele>569.24</ele>
        <time>2024-05-09T13:25:38Z</time>
      </trkpt>
      <trkpt lat="44.92913" lon="4.7258">
        <ele>568.76</ele>
        <time>2024-05-09T13:25:57Z</time>
      </trkpt>
      <trkpt lat="44.9289" lon="4.72588">
        <ele>569.24</ele>
        <time>2024-05-09T13:26:13Z</time>
      </trkpt>
      <trkpt lat="44.92866" lon="4.72603">
        <ele>575.01</ele>
        <time>2024-05-09T13:26:29Z</time>
      </trkpt>
      <trkpt lat="44.9285" lon="4.72636">
        <ele>574.04</ele>
        <time>2024-05-09T13:26:46Z</time>
      </trkpt>
      <trkpt lat="44.92837" lon="4.72674">
        <ele>568.76</ele>
        <time>2024-05-09T13:27:04Z</time>
      </trkpt>
      <trkpt lat="44.92832" lon="4.727">
        <ele>568.76</ele>
        <time>2024-05-09T13:27:17Z</time>
      </trkpt>
      <trkpt lat="44.92825" lon="4.72728">
        <ele>568.28</ele>
        <time>2024-05-09T13:27:32Z</time>
      </trkpt>
      <trkpt lat="44.92815" lon="4.72754">
        <ele>567.8</ele>
        <time>2024-05-09T13:27:46Z</time>
      </trkpt>
      <trkpt lat="44.92803" lon="4.72778">
        <ele>570.2</ele>
        <time>2024-05-09T13:28:00Z</time>
      </trkpt>
      <trkpt lat="44.92795" lon="4.72785">
        <ele>570.68</ele>
        <time>2024-05-09T13:28:06Z</time>
      </trkpt>
      <trkpt lat="44.92775" lon="4.72807">
        <ele>569.72</ele>
        <time>2024-05-09T13:28:22Z</time>
      </trkpt>
      <trkpt lat="44.92754" lon="4.72832">
        <ele>568.28</ele>
        <time>2024-05-09T13:28:39Z</time>
      </trkpt>
      <trkpt lat="44.92752" lon="4.7284">
        <ele>567.32</ele>
        <time>2024-05-09T13:28:51Z</time>
      </trkpt>
      <trkpt lat="44.92748" lon="4.72858">
        <ele>567.32</ele>
        <time>2024-05-09T13:29:06Z</time>
      </trkpt>
      <trkpt lat="44.92747" lon="4.7287">
        <ele>566.83</ele>
        <time>2024-05-09T13:29:21Z</time>
      </trkpt>
      <trkpt lat="44.92752" lon="4.72904">
        <ele>565.39</ele>
        <time>2024-05-09T13:29:39Z</time>
      </trkpt>
      <trkpt lat="44.92752" lon="4.72908">
        <ele>565.39</ele>
        <time>2024-05-09T13:29:41Z</time>
      </trkpt>
      <trkpt lat="44.92746" lon="4.72941">
        <ele>566.83</ele>
        <time>2024-05-09T13:29:58Z</time>
      </trkpt>
      <trkpt lat="44.92743" lon="4.72974">
        <ele>566.83</ele>
        <time>2024-05-09T13:30:15Z</time>
      </trkpt>
      <trkpt lat="44.92756" lon="4.72989">
        <ele>569.24</ele>
        <time>2024-05-09T13:30:29Z</time>
      </trkpt>
      <trkpt lat="44.9277" lon="4.72989">
        <ele>575.97</ele>
        <time>2024-05-09T13:30:45Z</time>
      </trkpt>
      <trkpt lat="44.92771" lon="4.7299">
        <ele>576.93</ele>
        <time>2024-05-09T13:31:01Z</time>
      </trkpt>
      <trkpt lat="44.9279" lon="4.72999">
        <ele>574.53</ele>
        <time>2024-05-09T13:31:21Z</time>
      </trkpt>
      <trkpt lat="44.92812" lon="4.73021">
        <ele>571.64</ele>
        <time>2024-05-09T13:31:36Z</time>
      </trkpt>
      <trkpt lat="44.92824" lon="4.73051">
        <ele>570.68</ele>
        <time>2024-05-09T13:31:54Z</time>
      </trkpt>
      <trkpt lat="44.92846" lon="4.73081">
        <ele>572.12</ele>
        <time>2024-05-09T13:32:13Z</time>
      </trkpt>
      <trkpt lat="44.92866" lon="4.73103">
        <ele>575.97</ele>
        <time>2024-05-09T13:32:31Z</time>
      </trkpt>
      <trkpt lat="44.92881" lon="4.73116">
        <ele>576.93</ele>
        <time>2024-05-09T13:32:45Z</time>
      </trkpt>
      <trkpt lat="44.92899" lon="4.7314">
        <ele>575.97</ele>
        <time>2024-05-09T13:32:59Z</time>
      </trkpt>
      <trkpt lat="44.92916" lon="4.73149">
        <ele>574.04</ele>
        <time>2024-05-09T13:33:12Z</time>
      </trkpt>
      <trkpt lat="44.92943" lon="4.73161">
        <ele>571.16</ele>
        <time>2024-05-09T13:33:29Z</time>
      </trkpt>
      <trkpt lat="44.92963" lon="4.73183">
        <ele>569.24</ele>
        <time>2024-05-09T13:33:48Z</time>
      </trkpt>
      <trkpt lat="44.92981" lon="4.73198">
        <ele>568.76</ele>
        <time>2024-05-09T13:34:03Z</time>
      </trkpt>
      <trkpt lat="44.93004" lon="4.73218">
        <ele>570.2</ele>
        <time>2024-05-09T13:34:21Z</time>
      </trkpt>
      <trkpt lat="44.93029" lon="4.73229">
        <ele>570.68</ele>
        <time>2024-05-09T13:34:41Z</time>
      </trkpt>
      <trkpt lat="44.9305" lon="4.73236">
        <ele>568.76</ele>
        <time>2024-05-09T13:35:01Z</time>
      </trkpt>
      <trkpt lat="44.93084" lon="4.73237">
        <ele>568.28</ele>
        <time>2024-05-09T13:35:21Z</time>
      </trkpt>
      <trkpt lat="44.93116" lon="4.73235">
        <ele>567.32</ele>
        <time>2024-05-09T13:35:40Z</time>
      </trkpt>
      <trkpt lat="44.93142" lon="4.73234">
        <ele>567.32</ele>
        <time>2024-05-09T13:35:54Z</time>
      </trkpt>
      <trkpt lat="44.93172" lon="4.7324">
        <ele>568.28</ele>
        <time>2024-05-09T13:36:15Z</time>
      </trkpt>
      <trkpt lat="44.93203" lon="4.73238">
        <ele>569.72</ele>
        <time>2024-05-09T13:36:37Z</time>
      </trkpt>
      <trkpt lat="44.93234" lon="4.73235">
        <ele>568.76</ele>
        <time>2024-05-09T13:36:53Z</time>
      </trkpt>
      <trkpt lat="44.93252" lon="4.73232">
        <ele>568.76</ele>
        <time>2024-05-09T13:37:08Z</time>
      </trkpt>
      <trkpt lat="44.93255" lon="4.73231">
        <ele>568.28</ele>
        <time>2024-05-09T13:37:10Z</time>
      </trkpt>
      <trkpt lat="44.93271" lon="4.73223">
        <ele>570.68</ele>
        <time>2024-05-09T13:37:28Z</time>
      </trkpt>
      <trkpt lat="44.93278" lon="4.7322">
        <ele>574.53</ele>
        <time>2024-05-09T13:37:52Z</time>
      </trkpt>
      <trkpt lat="44.93278" lon="4.73227">
        <ele>573.08</ele>
        <time>2024-05-09T13:38:07Z</time>
      </trkpt>
      <trkpt lat="44.93302" lon="4.73225">
        <ele>571.64</ele>
        <time>2024-05-09T13:38:23Z</time>
      </trkpt>
      <trkpt lat="44.93316" lon="4.7323">
        <ele>568.28</ele>
        <time>2024-05-09T13:38:33Z</time>
      </trkpt>
      <trkpt lat="44.9332" lon="4.73231">
        <ele>568.76</ele>
        <time>2024-05-09T13:38:35Z</time>
      </trkpt>
      <trkpt lat="44.93341" lon="4.73239">
        <ele>572.12</ele>
        <time>2024-05-09T13:38:51Z</time>
      </trkpt>
      <trkpt lat="44.93359" lon="4.73242">
        <ele>571.16</ele>
        <time>2024-05-09T13:39:06Z</time>
      </trkpt>
      <trkpt lat="44.93386" lon="4.73237">
        <ele>569.72</ele>
        <time>2024-05-09T13:39:23Z</time>
      </trkpt>
      <trkpt lat="44.93389" lon="4.73233">
        <ele>572.12</ele>
        <time>2024-05-09T13:39:43Z</time>
      </trkpt>
      <trkpt lat="44.93393" lon="4.73232">
        <ele>573.56</ele>
        <time>2024-05-09T13:40:03Z</time>
      </trkpt>
      <trkpt lat="44.93391" lon="4.73224">
        <ele>572.12</ele>
        <time>2024-05-09T13:40:15Z</time>
      </trkpt>
      <trkpt lat="44.93404" lon="4.73215">
        <ele>577.89</ele>
        <time>2024-05-09T13:40:32Z</time>
      </trkpt>
      <trkpt lat="44.93412" lon="4.7321">
        <ele>574.53</ele>
        <time>2024-05-09T13:40:47Z</time>
      </trkpt>
      <trkpt lat="44.93423" lon="4.73201">
        <ele>572.12</ele>
        <time>2024-05-09T13:41:01Z</time>
      </trkpt>
      <trkpt lat="44.9344" lon="4.73191">
        <ele>569.24</ele>
        <time>2024-05-09T13:41:17Z</time>
      </trkpt>
      <trkpt lat="44.93459" lon="4.73183">
        <ele>571.16</ele>
        <time>2024-05-09T13:41:30Z</time>
      </trkpt>
      <trkpt lat="44.93466" lon="4.73186">
        <ele>574.04</ele>
        <time>2024-05-09T13:41:42Z</time>
      </trkpt>
      <trkpt lat="44.93477" lon="4.73197">
        <ele>573.08</ele>
        <time>2024-05-09T13:41:55Z</time>
      </trkpt>
      <trkpt lat="44.93489" lon="4.73206">
        <ele>568.76</ele>
        <time>2024-05-09T13:42:05Z</time>
      </trkpt>
      <trkpt lat="44.93509" lon="4.73214">
        <ele>568.28</ele>
        <time>2024-05-09T13:42:17Z</time>
      </trkpt>
      <trkpt lat="44.93529" lon="4.73223">
        <ele>567.32</ele>
        <time>2024-05-09T13:42:30Z</time>
      </trkpt>
      <trkpt lat="44.93558" lon="4.73234">
        <ele>562.51</ele>
        <time>2024-05-09T13:42:48Z</time>
      </trkpt>
      <trkpt lat="44.93559" lon="4.73235">
        <ele>562.03</ele>
        <time>2024-05-09T13:42:49Z</time>
      </trkpt>
      <trkpt lat="44.93567" lon="4.73245">
        <ele>564.43</ele>
        <time>2024-05-09T13:42:55Z</time>
      </trkpt>
      <trkpt lat="44.93583" lon="4.73265">
        <ele>564.91</ele>
        <time>2024-05-09T13:43:10Z</time>
      </trkpt>
      <trkpt lat="44.93599" lon="4.73282">
        <ele>565.39</ele>
        <time>2024-05-09T13:43:25Z</time>
      </trkpt>
      <trkpt lat="44.93611" lon="4.73294">
        <ele>565.39</ele>
        <time>2024-05-09T13:43:35Z</time>
      </trkpt>
      <trkpt lat="44.93622" lon="4.73306">
        <ele>563.47</ele>
        <time>2024-05-09T13:43:43Z</time>
      </trkpt>
      <trkpt lat="44.93641" lon="4.73328">
        <ele>562.03</ele>
        <time>2024-05-09T13:44:00Z</time>
      </trkpt>
      <trkpt lat="44.93652" lon="4.73338">
        <ele>562.03</ele>
        <time>2024-05-09T13:44:08Z</time>
      </trkpt>
      <trkpt lat="44.93679" lon="4.73348">
        <ele>558.18</ele>
        <time>2024-05-09T13:44:25Z</time>
      </trkpt>
      <trkpt lat="44.93703" lon="4.73365">
        <ele>554.34</ele>
        <time>2024-05-09T13:44:43Z</time>
      </trkpt>
      <trkpt lat="44.93727" lon="4.73383">
        <ele>550.49</ele>
        <time>2024-05-09T13:45:01Z</time>
      </trkpt>
      <trkpt lat="44.93745" lon="4.73389">
        <ele>551.45</ele>
        <time>2024-05-09T13:45:16Z</time>
      </trkpt>
      <trkpt lat="44.93759" lon="4.73387">
        <ele>548.09</ele>
        <time>2024-05-09T13:45:33Z</time>
      </trkpt>
      <trkpt lat="44.93776" lon="4.73377">
        <ele>547.61</ele>
        <time>2024-05-09T13:45:46Z</time>
      </trkpt>
      <trkpt lat="44.93795" lon="4.73368">
        <ele>546.65</ele>
        <time>2024-05-09T13:46:00Z</time>
      </trkpt>
      <trkpt lat="44.93816" lon="4.73371">
        <ele>545.69</ele>
        <time>2024-05-09T13:46:15Z</time>
      </trkpt>
      <trkpt lat="44.93819" lon="4.73376">
        <ele>544.72</ele>
        <time>2024-05-09T13:46:20Z</time>
      </trkpt>
      <trkpt lat="44.93829" lon="4.73395">
        <ele>544.24</ele>
        <time>2024-05-09T13:46:33Z</time>
      </trkpt>
      <trkpt lat="44.93828" lon="4.73429">
        <ele>539.92</ele>
        <time>2024-05-09T13:46:48Z</time>
      </trkpt>
      <trkpt lat="44.93815" lon="4.73452">
        <ele>534.63</ele>
        <time>2024-05-09T13:47:00Z</time>
      </trkpt>
      <trkpt lat="44.93814" lon="4.73465">
        <ele>535.59</ele>
        <time>2024-05-09T13:47:06Z</time>
      </trkpt>
      <trkpt lat="44.93821" lon="4.73494">
        <ele>541.36</ele>
        <time>2024-05-09T13:47:20Z</time>
      </trkpt>
      <trkpt lat="44.93823" lon="4.73515">
        <ele>541.36</ele>
        <time>2024-05-09T13:47:30Z</time>
      </trkpt>
      <trkpt lat="44.93823" lon="4.73532">
        <ele>542.32</ele>
        <time>2024-05-09T13:47:46Z</time>
      </trkpt>
      <trkpt lat="44.9383" lon="4.73531">
        <ele>541.84</ele>
        <time>2024-05-09T13:48:11Z</time>
      </trkpt>
      <trkpt lat="44.93839" lon="4.73532">
        <ele>540.88</ele>
        <time>2024-05-09T13:48:21Z</time>
      </trkpt>
      <trkpt lat="44.93848" lon="4.73532">
        <ele>539.92</ele>
        <time>2024-05-09T13:48:29Z</time>
      </trkpt>
      <trkpt lat="44.93877" lon="4.73545">
        <ele>537.51</ele>
        <time>2024-05-09T13:48:48Z</time>
      </trkpt>
      <trkpt lat="44.939" lon="4.73558">
        <ele>531.75</ele>
        <time>2024-05-09T13:49:05Z</time>
      </trkpt>
      <trkpt lat="44.9392" lon="4.73579">
        <ele>525.98</ele>
        <time>2024-05-09T13:49:23Z</time>
      </trkpt>
      <trkpt lat="44.93921" lon="4.736">
        <ele>523.09</ele>
        <time>2024-05-09T13:49:34Z</time>
      </trkpt>
      <trkpt lat="44.9391" lon="4.73631">
        <ele>529.82</ele>
        <time>2024-05-09T13:49:49Z</time>
      </trkpt>
      <trkpt lat="44.93899" lon="4.73649">
        <ele>531.75</ele>
        <time>2024-05-09T13:49:59Z</time>
      </trkpt>
      <trkpt lat="44.93897" lon="4.73661">
        <ele>532.23</ele>
        <time>2024-05-09T13:50:04Z</time>
      </trkpt>
      <trkpt lat="44.93912" lon="4.73662">
        <ele>526.94</ele>
        <time>2024-05-09T13:50:17Z</time>
      </trkpt>
      <trkpt lat="44.93923" lon="4.73639">
        <ele>524.54</ele>
        <time>2024-05-09T13:50:30Z</time>
      </trkpt>
      <trkpt lat="44.93935" lon="4.73618">
        <ele>523.09</ele>
        <time>2024-05-09T13:50:43Z</time>
      </trkpt>
      <trkpt lat="44.93956" lon="4.73602">
        <ele>519.73</ele>
        <time>2024-05-09T13:50:58Z</time>
      </trkpt>
      <trkpt lat="44.9398" lon="4.73586">
        <ele>518.77</ele>
        <time>2024-05-09T13:51:16Z</time>
      </trkpt>
      <trkpt lat="44.94003" lon="4.7359">
        <ele>518.77</ele>
        <time>2024-05-09T13:51:31Z</time>
      </trkpt>
      <trkpt lat="44.94023" lon="4.73604">
        <ele>520.69</ele>
        <time>2024-05-09T13:51:44Z</time>
      </trkpt>
      <trkpt lat="44.94051" lon="4.73619">
        <ele>522.61</ele>
        <time>2024-05-09T13:52:03Z</time>
      </trkpt>
      <trkpt lat="44.94065" lon="4.73639">
        <ele>524.06</ele>
        <time>2024-05-09T13:52:18Z</time>
      </trkpt>
      <trkpt lat="44.94067" lon="4.73679">
        <ele>525.02</ele>
        <time>2024-05-09T13:52:37Z</time>
      </trkpt>
      <trkpt lat="44.94066" lon="4.73723">
        <ele>526.94</ele>
        <time>2024-05-09T13:52:56Z</time>
      </trkpt>
      <trkpt lat="44.94068" lon="4.73756">
        <ele>528.86</ele>
        <time>2024-05-09T13:53:11Z</time>
      </trkpt>
      <trkpt lat="44.94065" lon="4.7377">
        <ele>529.34</ele>
        <time>2024-05-09T13:53:18Z</time>
      </trkpt>
      <trkpt lat="44.9406" lon="4.73803">
        <ele>528.38</ele>
        <time>2024-05-09T13:53:33Z</time>
      </trkpt>
      <trkpt lat="44.94064" lon="4.73837">
        <ele>528.38</ele>
        <time>2024-05-09T13:53:48Z</time>
      </trkpt>
      <trkpt lat="44.94077" lon="4.73868">
        <ele>525.98</ele>
        <time>2024-05-09T13:54:05Z</time>
      </trkpt>
      <trkpt lat="44.94099" lon="4.73899">
        <ele>520.21</ele>
        <time>2024-05-09T13:54:25Z</time>
      </trkpt>
      <trkpt lat="44.94127" lon="4.73931">
        <ele>518.77</ele>
        <time>2024-05-09T13:54:47Z</time>
      </trkpt>
      <trkpt lat="44.9414" lon="4.73947">
        <ele>516.85</ele>
        <time>2024-05-09T13:54:58Z</time>
      </trkpt>
      <trkpt lat="44.94163" lon="4.73969">
        <ele>515.4</ele>
        <time>2024-05-09T13:55:17Z</time>
      </trkpt>
      <trkpt lat="44.94174" lon="4.73939">
        <ele>518.77</ele>
        <time>2024-05-09T13:55:33Z</time>
      </trkpt>
      <trkpt lat="44.94186" lon="4.73907">
        <ele>522.13</ele>
        <time>2024-05-09T13:55:47Z</time>
      </trkpt>
      <trkpt lat="44.94194" lon="4.73885">
        <ele>523.09</ele>
        <time>2024-05-09T13:55:59Z</time>
      </trkpt>
      <trkpt lat="44.94215" lon="4.73865">
        <ele>526.46</ele>
        <time>2024-05-09T13:56:15Z</time>
      </trkpt>
      <trkpt lat="44.94243" lon="4.7385">
        <ele>530.79</ele>
        <time>2024-05-09T13:56:34Z</time>
      </trkpt>
      <trkpt lat="44.94274" lon="4.73832">
        <ele>530.79</ele>
        <time>2024-05-09T13:56:55Z</time>
      </trkpt>
      <trkpt lat="44.94298" lon="4.73817">
        <ele>531.75</ele>
        <time>2024-05-09T13:57:14Z</time>
      </trkpt>
      <trkpt lat="44.9432" lon="4.73801">
        <ele>530.79</ele>
        <time>2024-05-09T13:57:31Z</time>
      </trkpt>
      <trkpt lat="44.94348" lon="4.738">
        <ele>534.15</ele>
        <time>2024-05-09T13:57:48Z</time>
      </trkpt>
      <trkpt lat="44.94371" lon="4.73804">
        <ele>532.23</ele>
        <time>2024-05-09T13:58:03Z</time>
      </trkpt>
      <trkpt lat="44.94394" lon="4.73801">
        <ele>536.55</ele>
        <time>2024-05-09T13:58:17Z</time>
      </trkpt>
      <trkpt lat="44.94406" lon="4.73794">
        <ele>536.07</ele>
        <time>2024-05-09T13:58:26Z</time>
      </trkpt>
      <trkpt lat="44.94431" lon="4.73777">
        <ele>535.11</ele>
        <time>2024-05-09T13:58:44Z</time>
      </trkpt>
      <trkpt lat="44.94448" lon="4.73754">
        <ele>531.75</ele>
        <time>2024-05-09T13:59:00Z</time>
      </trkpt>
      <trkpt lat="44.9446" lon="4.73719">
        <ele>528.86</ele>
        <time>2024-05-09T13:59:17Z</time>
      </trkpt>
      <trkpt lat="44.94486" lon="4.73705">
        <ele>528.38</ele>
        <time>2024-05-09T13:59:31Z</time>
      </trkpt>
      <trkpt lat="44.94509" lon="4.73694">
        <ele>530.3</ele>
        <time>2024-05-09T13:59:47Z</time>
      </trkpt>
      <trkpt lat="44.94537" lon="4.73689">
        <ele>533.19</ele>
        <time>2024-05-09T14:00:05Z</time>
      </trkpt>
      <trkpt lat="44.94567" lon="4.73686">
        <ele>536.07</ele>
        <time>2024-05-09T14:00:24Z</time>
      </trkpt>
      <trkpt lat="44.94591" lon="4.73679">
        <ele>533.19</ele>
        <time>2024-05-09T14:00:40Z</time>
      </trkpt>
      <trkpt lat="44.94592" lon="4.73679">
        <ele>533.67</ele>
        <time>2024-05-09T14:00:41Z</time>
      </trkpt>
      <trkpt lat="44.94594" lon="4.73679">
        <ele>533.67</ele>
        <time>2024-05-09T14:00:42Z</time>
      </trkpt>
      <trkpt lat="44.94596" lon="4.73679">
        <ele>533.67</ele>
        <time>2024-05-09T14:00:43Z</time>
      </trkpt>
      <trkpt lat="44.94597" lon="4.73679">
        <ele>533.67</ele>
        <time>2024-05-09T14:00:44Z</time>
      </trkpt>
      <trkpt lat="44.94599" lon="4.73679">
        <ele>534.15</ele>
        <time>2024-05-09T14:00:45Z</time>
      </trkpt>
      <trkpt lat="44.946" lon="4.73679">
        <ele>534.15</ele>
        <time>2024-05-09T14:00:46Z</time>
      </trkpt>
      <trkpt lat="44.9463" lon="4.73671">
        <ele>536.55</ele>
        <time>2024-05-09T14:01:01Z</time>
      </trkpt>
      <trkpt lat="44.94658" lon="4.73669">
        <ele>538.48</ele>
        <time>2024-05-09T14:01:20Z</time>
      </trkpt>
      <trkpt lat="44.94685" lon="4.7366">
        <ele>540.4</ele>
        <time>2024-05-09T14:01:39Z</time>
      </trkpt>
      <trkpt lat="44.94704" lon="4.73644">
        <ele>541.36</ele>
        <time>2024-05-09T14:01:54Z</time>
      </trkpt>
      <trkpt lat="44.94731" lon="4.7364">
        <ele>542.8</ele>
        <time>2024-05-09T14:02:13Z</time>
      </trkpt>
      <trkpt lat="44.9475" lon="4.7363">
        <ele>540.88</ele>
        <time>2024-05-09T14:02:30Z</time>
      </trkpt>
      <trkpt lat="44.94774" lon="4.73615">
        <ele>539.92</ele>
        <time>2024-05-09T14:02:49Z</time>
      </trkpt>
      <trkpt lat="44.94797" lon="4.73596">
        <ele>537.51</ele>
        <time>2024-05-09T14:03:08Z</time>
      </trkpt>
      <trkpt lat="44.94826" lon="4.73585">
        <ele>540.4</ele>
        <time>2024-05-09T14:03:26Z</time>
      </trkpt>
      <trkpt lat="44.94854" lon="4.73577">
        <ele>547.13</ele>
        <time>2024-05-09T14:03:42Z</time>
      </trkpt>
      <trkpt lat="44.94878" lon="4.73567">
        <ele>550.49</ele>
        <time>2024-05-09T14:03:59Z</time>
      </trkpt>
      <trkpt lat="44.94897" lon="4.73558">
        <ele>549.53</ele>
        <time>2024-05-09T14:04:15Z</time>
      </trkpt>
      <trkpt lat="44.94914" lon="4.73547">
        <ele>547.61</ele>
        <time>2024-05-09T14:04:30Z</time>
      </trkpt>
      <trkpt lat="44.94934" lon="4.73534">
        <ele>543.28</ele>
        <time>2024-05-09T14:04:45Z</time>
      </trkpt>
      <trkpt lat="44.94947" lon="4.73521">
        <ele>539.44</ele>
        <time>2024-05-09T14:04:57Z</time>
      </trkpt>
      <trkpt lat="44.94932" lon="4.73505">
        <ele>540.4</ele>
        <time>2024-05-09T14:05:11Z</time>
      </trkpt>
      <trkpt lat="44.94908" lon="4.7349">
        <ele>545.2</ele>
        <time>2024-05-09T14:05:29Z</time>
      </trkpt>
      <trkpt lat="44.94882" lon="4.7348">
        <ele>549.05</ele>
        <time>2024-05-09T14:05:48Z</time>
      </trkpt>
      <trkpt lat="44.9486" lon="4.73472">
        <ele>555.3</ele>
        <time>2024-05-09T14:06:03Z</time>
      </trkpt>
      <trkpt lat="44.94857" lon="4.73465">
        <ele>557.7</ele>
        <time>2024-05-09T14:06:08Z</time>
      </trkpt>
      <trkpt lat="44.9486" lon="4.7344">
        <ele>559.62</ele>
        <time>2024-05-09T14:06:23Z</time>
      </trkpt>
      <trkpt lat="44.94868" lon="4.73407">
        <ele>557.7</ele>
        <time>2024-05-09T14:06:38Z</time>
      </trkpt>
      <trkpt lat="44.94878" lon="4.73366">
        <ele>559.62</ele>
        <time>2024-05-09T14:06:57Z</time>
      </trkpt>
      <trkpt lat="44.9489" lon="4.73329">
        <ele>559.62</ele>
        <time>2024-05-09T14:07:17Z</time>
      </trkpt>
      <trkpt lat="44.94906" lon="4.73292">
        <ele>558.66</ele>
        <time>2024-05-09T14:07:38Z</time>
      </trkpt>
      <trkpt lat="44.94919" lon="4.73257">
        <ele>558.18</ele>
        <time>2024-05-09T14:07:55Z</time>
      </trkpt>
      <trkpt lat="44.9493" lon="4.73226">
        <ele>557.7</ele>
        <time>2024-05-09T14:08:11Z</time>
      </trkpt>
      <trkpt lat="44.94941" lon="4.73195">
        <ele>557.7</ele>
        <time>2024-05-09T14:08:26Z</time>
      </trkpt>
      <trkpt lat="44.94958" lon="4.73153">
        <ele>558.66</ele>
        <time>2024-05-09T14:08:48Z</time>
      </trkpt>
      <trkpt lat="44.94968" lon="4.73128">
        <ele>561.55</ele>
        <time>2024-05-09T14:09:02Z</time>
      </trkpt>
      <trkpt lat="44.94982" lon="4.73097">
        <ele>564.43</ele>
        <time>2024-05-09T14:09:20Z</time>
      </trkpt>
      <trkpt lat="44.94994" lon="4.7306">
        <ele>566.83</ele>
        <time>2024-05-09T14:09:39Z</time>
      </trkpt>
      <trkpt lat="44.95006" lon="4.73035">
        <ele>569.24</ele>
        <time>2024-05-09T14:09:54Z</time>
      </trkpt>
      <trkpt lat="44.95019" lon="4.73006">
        <ele>570.2</ele>
        <time>2024-05-09T14:10:12Z</time>
      </trkpt>
      <trkpt lat="44.95029" lon="4.72985">
        <ele>570.68</ele>
        <time>2024-05-09T14:10:25Z</time>
      </trkpt>
      <trkpt lat="44.95038" lon="4.72965">
        <ele>569.24</ele>
        <time>2024-05-09T14:10:38Z</time>
      </trkpt>
      <trkpt lat="44.95051" lon="4.72942">
        <ele>570.2</ele>
        <time>2024-05-09T14:10:52Z</time>
      </trkpt>
      <trkpt lat="44.95065" lon="4.72919">
        <ele>572.12</ele>
        <time>2024-05-09T14:11:07Z</time>
      </trkpt>
      <trkpt lat="44.95074" lon="4.72885">
        <ele>567.32</ele>
        <time>2024-05-09T14:11:23Z</time>
      </trkpt>
      <trkpt lat="44.95083" lon="4.72859">
        <ele>564.43</ele>
        <time>2024-05-09T14:11:37Z</time>
      </trkpt>
      <trkpt lat="44.95109" lon="4.72823">
        <ele>562.51</ele>
        <time>2024-05-09T14:11:55Z</time>
      </trkpt>
      <trkpt lat="44.95139" lon="4.72807">
        <ele>568.76</ele>
        <time>2024-05-09T14:12:11Z</time>
      </trkpt>
      <trkpt lat="44.95165" lon="4.72794">
        <ele>570.2</ele>
        <time>2024-05-09T14:12:27Z</time>
      </trkpt>
      <trkpt lat="44.95175" lon="4.72786">
        <ele>570.2</ele>
        <time>2024-05-09T14:12:37Z</time>
      </trkpt>
      <trkpt lat="44.95191" lon="4.72761">
        <ele>570.2</ele>
        <time>2024-05-09T14:12:53Z</time>
      </trkpt>
      <trkpt lat="44.95203" lon="4.72725">
        <ele>570.2</ele>
        <time>2024-05-09T14:13:12Z</time>
      </trkpt>
      <trkpt lat="44.95214" lon="4.72684">
        <ele>571.16</ele>
        <time>2024-05-09T14:13:32Z</time>
      </trkpt>
      <trkpt lat="44.95234" lon="4.72669">
        <ele>571.16</ele>
        <time>2024-05-09T14:13:48Z</time>
      </trkpt>
      <trkpt lat="44.95256" lon="4.72672">
        <ele>568.76</ele>
        <time>2024-05-09T14:14:04Z</time>
      </trkpt>
      <trkpt lat="44.95282" lon="4.72698">
        <ele>566.35</ele>
        <time>2024-05-09T14:14:24Z</time>
      </trkpt>
      <trkpt lat="44.95299" lon="4.72714">
        <ele>565.87</ele>
        <time>2024-05-09T14:14:38Z</time>
      </trkpt>
      <trkpt lat="44.95329" lon="4.72728">
        <ele>567.32</ele>
        <time>2024-05-09T14:14:57Z</time>
      </trkpt>
      <trkpt lat="44.95353" lon="4.72739">
        <ele>565.39</ele>
        <time>2024-05-09T14:15:14Z</time>
      </trkpt>
      <trkpt lat="44.95376" lon="4.72772">
        <ele>566.35</ele>
        <time>2024-05-09T14:15:35Z</time>
      </trkpt>
      <trkpt lat="44.95391" lon="4.72804">
        <ele>565.87</ele>
        <time>2024-05-09T14:15:53Z</time>
      </trkpt>
      <trkpt lat="44.95405" lon="4.72844">
        <ele>567.8</ele>
        <time>2024-05-09T14:16:08Z</time>
      </trkpt>
      <trkpt lat="44.95411" lon="4.72875">
        <ele>568.76</ele>
        <time>2024-05-09T14:16:25Z</time>
      </trkpt>
      <trkpt lat="44.95413" lon="4.72898">
        <ele>569.72</ele>
        <time>2024-05-09T14:16:40Z</time>
      </trkpt>
      <trkpt lat="44.95416" lon="4.72929">
        <ele>571.64</ele>
        <time>2024-05-09T14:16:56Z</time>
      </trkpt>
      <trkpt lat="44.95416" lon="4.72933">
        <ele>571.64</ele>
        <time>2024-05-09T14:16:58Z</time>
      </trkpt>
      <trkpt lat="44.95418" lon="4.72946">
        <ele>572.6</ele>
        <time>2024-05-09T14:17:04Z</time>
      </trkpt>
      <trkpt lat="44.95433" lon="4.72972">
        <ele>574.53</ele>
        <time>2024-05-09T14:17:20Z</time>
      </trkpt>
      <trkpt lat="44.95436" lon="4.73002">
        <ele>575.49</ele>
        <time>2024-05-09T14:17:34Z</time>
      </trkpt>
      <trkpt lat="44.95433" lon="4.73041">
        <ele>576.93</ele>
        <time>2024-05-09T14:17:52Z</time>
      </trkpt>
      <trkpt lat="44.95432" lon="4.73077">
        <ele>576.93</ele>
        <time>2024-05-09T14:18:10Z</time>
      </trkpt>
      <trkpt lat="44.95433" lon="4.73078">
        <ele>576.93</ele>
        <time>2024-05-09T14:18:11Z</time>
      </trkpt>
      <trkpt lat="44.95434" lon="4.73079">
        <ele>576.93</ele>
        <time>2024-05-09T14:18:12Z</time>
      </trkpt>
      <trkpt lat="44.95435" lon="4.7308">
        <ele>577.41</ele>
        <time>2024-05-09T14:18:13Z</time>
      </trkpt>
      <trkpt lat="44.95437" lon="4.73081">
        <ele>577.41</ele>
        <time>2024-05-09T14:18:14Z</time>
      </trkpt>
      <trkpt lat="44.95439" lon="4.73082">
        <ele>577.89</ele>
        <time>2024-05-09T14:18:15Z</time>
      </trkpt>
      <trkpt lat="44.9546" lon="4.7308">
        <ele>580.29</ele>
        <time>2024-05-09T14:18:29Z</time>
      </trkpt>
      <trkpt lat="44.9549" lon="4.73069">
        <ele>581.25</ele>
        <time>2024-05-09T14:18:50Z</time>
      </trkpt>
      <trkpt lat="44.95509" lon="4.73056">
        <ele>582.7</ele>
        <time>2024-05-09T14:19:05Z</time>
      </trkpt>
      <trkpt lat="44.95531" lon="4.73048">
        <ele>586.06</ele>
        <time>2024-05-09T14:19:21Z</time>
      </trkpt>
      <trkpt lat="44.95552" lon="4.73044">
        <ele>587.98</ele>
        <time>2024-05-09T14:19:38Z</time>
      </trkpt>
      <trkpt lat="44.95569" lon="4.73032">
        <ele>590.39</ele>
        <time>2024-05-09T14:19:53Z</time>
      </trkpt>
      <trkpt lat="44.95568" lon="4.73015">
        <ele>590.39</ele>
        <time>2024-05-09T14:20:07Z</time>
      </trkpt>
      <trkpt lat="44.95566" lon="4.72974">
        <ele>590.87</ele>
        <time>2024-05-09T14:20:24Z</time>
      </trkpt>
      <trkpt lat="44.95567" lon="4.72941">
        <ele>590.87</ele>
        <time>2024-05-09T14:20:41Z</time>
      </trkpt>
      <trkpt lat="44.95575" lon="4.72901">
        <ele>589.43</ele>
        <time>2024-05-09T14:21:01Z</time>
      </trkpt>
      <trkpt lat="44.95583" lon="4.72868">
        <ele>588.95</ele>
        <time>2024-05-09T14:21:17Z</time>
      </trkpt>
      <trkpt lat="44.95588" lon="4.72853">
        <ele>588.46</ele>
        <time>2024-05-09T14:21:25Z</time>
      </trkpt>
      <trkpt lat="44.9559" lon="4.72846">
        <ele>587.98</ele>
        <time>2024-05-09T14:21:30Z</time>
      </trkpt>
      <trkpt lat="44.95591" lon="4.72844">
        <ele>587.98</ele>
        <time>2024-05-09T14:21:31Z</time>
      </trkpt>
      <trkpt lat="44.95591" lon="4.72841">
        <ele>587.5</ele>
        <time>2024-05-09T14:21:32Z</time>
      </trkpt>
      <trkpt lat="44.95591" lon="4.72839">
        <ele>587.5</ele>
        <time>2024-05-09T14:21:33Z</time>
      </trkpt>
      <trkpt lat="44.95592" lon="4.72837">
        <ele>587.5</ele>
        <time>2024-05-09T14:21:34Z</time>
      </trkpt>
      <trkpt lat="44.95599" lon="4.7281">
        <ele>583.66</ele>
        <time>2024-05-09T14:21:48Z</time>
      </trkpt>
      <trkpt lat="44.95609" lon="4.72779">
        <ele>579.33</ele>
        <time>2024-05-09T14:22:04Z</time>
      </trkpt>
      <trkpt lat="44.95619" lon="4.72745">
        <ele>576.93</ele>
        <time>2024-05-09T14:22:22Z</time>
      </trkpt>
      <trkpt lat="44.95621" lon="4.72716">
        <ele>574.04</ele>
        <time>2024-05-09T14:22:37Z</time>
      </trkpt>
      <trkpt lat="44.95615" lon="4.72666">
        <ele>570.68</ele>
        <time>2024-05-09T14:22:58Z</time>
      </trkpt>
      <trkpt lat="44.95598" lon="4.72626">
        <ele>569.72</ele>
        <time>2024-05-09T14:23:20Z</time>
      </trkpt>
      <trkpt lat="44.95576" lon="4.72582">
        <ele>570.2</ele>
        <time>2024-05-09T14:23:46Z</time>
      </trkpt>
      <trkpt lat="44.95561" lon="4.72543">
        <ele>569.72</ele>
        <time>2024-05-09T14:24:09Z</time>
      </trkpt>
      <trkpt lat="44.95543" lon="4.72509">
        <ele>571.16</ele>
        <time>2024-05-09T14:24:31Z</time>
      </trkpt>
      <trkpt lat="44.95525" lon="4.72472">
        <ele>575.01</ele>
        <time>2024-05-09T14:24:47Z</time>
      </trkpt>
      <trkpt lat="44.95521" lon="4.72457">
        <ele>577.41</ele>
        <time>2024-05-09T14:24:54Z</time>
      </trkpt>
      <trkpt lat="44.95519" lon="4.72455">
        <ele>578.85</ele>
        <time>2024-05-09T14:24:55Z</time>
      </trkpt>
      <trkpt lat="44.95519" lon="4.72453">
        <ele>579.33</ele>
        <time>2024-05-09T14:24:56Z</time>
      </trkpt>
      <trkpt lat="44.95507" lon="4.72418">
        <ele>586.06</ele>
        <time>2024-05-09T14:25:15Z</time>
      </trkpt>
      <trkpt lat="44.95515" lon="4.72374">
        <ele>590.87</ele>
        <time>2024-05-09T14:25:36Z</time>
      </trkpt>
      <trkpt lat="44.95521" lon="4.72335">
        <ele>594.23</ele>
        <time>2024-05-09T14:25:56Z</time>
      </trkpt>
      <trkpt lat="44.95525" lon="4.72291">
        <ele>593.75</ele>
        <time>2024-05-09T14:26:15Z</time>
      </trkpt>
      <trkpt lat="44.95524" lon="4.72241">
        <ele>593.75</ele>
        <time>2024-05-09T14:26:35Z</time>
      </trkpt>
      <trkpt lat="44.95524" lon="4.72186">
        <ele>594.71</ele>
        <time>2024-05-09T14:26:57Z</time>
      </trkpt>
      <trkpt lat="44.95526" lon="4.72138">
        <ele>595.19</ele>
        <time>2024-05-09T14:27:16Z</time>
      </trkpt>
      <trkpt lat="44.95527" lon="4.72086">
        <ele>597.12</ele>
        <time>2024-05-09T14:27:38Z</time>
      </trkpt>
      <trkpt lat="44.95528" lon="4.72038">
        <ele>600.48</ele>
        <time>2024-05-09T14:28:01Z</time>
      </trkpt>
      <trkpt lat="44.95535" lon="4.72">
        <ele>600</ele>
        <time>2024-05-09T14:28:20Z</time>
      </trkpt>
      <trkpt lat="44.95553" lon="4.7196">
        <ele>599.04</ele>
        <time>2024-05-09T14:28:41Z</time>
      </trkpt>
      <trkpt lat="44.95576" lon="4.7193">
        <ele>599.52</ele>
        <time>2024-05-09T14:29:01Z</time>
      </trkpt>
      <trkpt lat="44.95606" lon="4.71903">
        <ele>597.6</ele>
        <time>2024-05-09T14:29:21Z</time>
      </trkpt>
      <trkpt lat="44.95635" lon="4.71875">
        <ele>597.6</ele>
        <time>2024-05-09T14:29:42Z</time>
      </trkpt>
      <trkpt lat="44.95658" lon="4.71852">
        <ele>592.79</ele>
        <time>2024-05-09T14:30:02Z</time>
      </trkpt>
      <trkpt lat="44.95668" lon="4.71823">
        <ele>588.95</ele>
        <time>2024-05-09T14:30:18Z</time>
      </trkpt>
      <trkpt lat="44.95664" lon="4.71812">
        <ele>588.95</ele>
        <time>2024-05-09T14:30:23Z</time>
      </trkpt>
      <trkpt lat="44.9564" lon="4.71786">
        <ele>589.43</ele>
        <time>2024-05-09T14:30:41Z</time>
      </trkpt>
      <trkpt lat="44.95613" lon="4.71767">
        <ele>588.46</ele>
        <time>2024-05-09T14:30:58Z</time>
      </trkpt>
      <trkpt lat="44.95592" lon="4.71759">
        <ele>587.5</ele>
        <time>2024-05-09T14:31:12Z</time>
      </trkpt>
      <trkpt lat="44.95566" lon="4.71738">
        <ele>591.83</ele>
        <time>2024-05-09T14:31:31Z</time>
      </trkpt>
      <trkpt lat="44.95536" lon="4.71714">
        <ele>591.35</ele>
        <time>2024-05-09T14:31:54Z</time>
      </trkpt>
      <trkpt lat="44.95521" lon="4.71691">
        <ele>589.91</ele>
        <time>2024-05-09T14:32:13Z</time>
      </trkpt>
      <trkpt lat="44.95517" lon="4.71683">
        <ele>587.98</ele>
        <time>2024-05-09T14:32:32Z</time>
      </trkpt>
      <trkpt lat="44.95516" lon="4.71682">
        <ele>587.5</ele>
        <time>2024-05-09T14:32:54Z</time>
      </trkpt>
      <trkpt lat="44.95515" lon="4.71683">
        <ele>588.46</ele>
        <time>2024-05-09T14:33:12Z</time>
      </trkpt>
      <trkpt lat="44.95508" lon="4.71671">
        <ele>586.54</ele>
        <time>2024-05-09T14:33:27Z</time>
      </trkpt>
      <trkpt lat="44.95499" lon="4.71654">
        <ele>585.1</ele>
        <time>2024-05-09T14:33:42Z</time>
      </trkpt>
      <trkpt lat="44.95489" lon="4.71643">
        <ele>584.62</ele>
        <time>2024-05-09T14:33:55Z</time>
      </trkpt>
      <trkpt lat="44.95473" lon="4.71622">
        <ele>582.7</ele>
        <time>2024-05-09T14:34:10Z</time>
      </trkpt>
      <trkpt lat="44.95455" lon="4.71607">
        <ele>578.37</ele>
        <time>2024-05-09T14:34:27Z</time>
      </trkpt>
      <trkpt lat="44.95449" lon="4.71585">
        <ele>574.53</ele>
        <time>2024-05-09T14:34:43Z</time>
      </trkpt>
      <trkpt lat="44.95444" lon="4.71546">
        <ele>569.72</ele>
        <time>2024-05-09T14:35:00Z</time>
      </trkpt>
      <trkpt lat="44.95441" lon="4.71523">
        <ele>569.24</ele>
        <time>2024-05-09T14:35:15Z</time>
      </trkpt>
      <trkpt lat="44.95437" lon="4.71498">
        <ele>570.68</ele>
        <time>2024-05-09T14:35:30Z</time>
      </trkpt>
      <trkpt lat="44.95437" lon="4.71467">
        <ele>567.8</ele>
        <time>2024-05-09T14:35:46Z</time>
      </trkpt>
      <trkpt lat="44.95446" lon="4.71458">
        <ele>566.83</ele>
        <time>2024-05-09T14:35:58Z</time>
      </trkpt>
      <trkpt lat="44.95447" lon="4.71455">
        <ele>565.39</ele>
        <time>2024-05-09T14:36:17Z</time>
      </trkpt>
      <trkpt lat="44.95454" lon="4.71469">
        <ele>565.39</ele>
        <time>2024-05-09T14:36:32Z</time>
      </trkpt>
      <trkpt lat="44.95461" lon="4.71475">
        <ele>564.91</ele>
        <time>2024-05-09T14:36:39Z</time>
      </trkpt>
      <trkpt lat="44.95479" lon="4.71494">
        <ele>563.47</ele>
        <time>2024-05-09T14:36:57Z</time>
      </trkpt>
      <trkpt lat="44.9549" lon="4.71503">
        <ele>562.99</ele>
        <time>2024-05-09T14:37:05Z</time>
      </trkpt>
      <trkpt lat="44.95491" lon="4.71504">
        <ele>562.51</ele>
        <time>2024-05-09T14:37:06Z</time>
      </trkpt>
      <trkpt lat="44.95498" lon="4.71505">
        <ele>562.51</ele>
        <time>2024-05-09T14:37:10Z</time>
      </trkpt>
      <trkpt lat="44.95489" lon="4.71489">
        <ele>562.99</ele>
        <time>2024-05-09T14:37:23Z</time>
      </trkpt>
      <trkpt lat="44.95487" lon="4.71487">
        <ele>562.51</ele>
        <time>2024-05-09T14:37:26Z</time>
      </trkpt>
      <trkpt lat="44.95486" lon="4.71485">
        <ele>562.03</ele>
        <time>2024-05-09T14:37:27Z</time>
      </trkpt>
      <trkpt lat="44.95485" lon="4.71484">
        <ele>562.03</ele>
        <time>2024-05-09T14:37:28Z</time>
      </trkpt>
      <trkpt lat="44.95484" lon="4.71483">
        <ele>562.03</ele>
        <time>2024-05-09T14:37:29Z</time>
      </trkpt>
      <trkpt lat="44.95483" lon="4.71481">
        <ele>561.55</ele>
        <time>2024-05-09T14:37:30Z</time>
      </trkpt>
      <trkpt lat="44.95482" lon="4.71479">
        <ele>562.03</ele>
        <time>2024-05-09T14:37:31Z</time>
      </trkpt>
      <trkpt lat="44.95481" lon="4.71478">
        <ele>562.03</ele>
        <time>2024-05-09T14:37:32Z</time>
      </trkpt>
      <trkpt lat="44.95478" lon="4.71468">
        <ele>562.51</ele>
        <time>2024-05-09T14:37:48Z</time>
      </trkpt>
      <trkpt lat="44.95478" lon="4.71463">
        <ele>560.59</ele>
        <time>2024-05-09T14:38:08Z</time>
      </trkpt>
      <trkpt lat="44.95475" lon="4.71454">
        <ele>559.62</ele>
        <time>2024-05-09T14:38:35Z</time>
      </trkpt>
      <trkpt lat="44.95473" lon="4.71452">
        <ele>559.14</ele>
        <time>2024-05-09T14:38:55Z</time>
      </trkpt>
      <trkpt lat="44.95471" lon="4.71447">
        <ele>558.66</ele>
        <time>2024-05-09T14:39:21Z</time>
      </trkpt>
      <trkpt lat="44.95472" lon="4.71448">
        <ele>559.62</ele>
        <time>2024-05-09T14:39:44Z</time>
      </trkpt>
      <trkpt lat="44.95473" lon="4.71452">
        <ele>558.66</ele>
        <time>2024-05-09T14:40:04Z</time>
      </trkpt>
      <trkpt lat="44.95472" lon="4.71452">
        <ele>562.99</ele>
        <time>2024-05-09T14:40:23Z</time>
        <extensions>
          <visugpx:TrkExtension xmlns:visugpx="https://www.visugpx.com/editgpx/">
            <visugpx:node>1</visugpx:node>
            </visugpx:TrkExtension>
        </extensions>
      </trkpt>
    </trkseg>
  </trk>
</gpx>